<?xml version="1.0" encoding="UTF-8" standalone="no" ?>
<gpx xmlns="http://www.topografix.com/GPX/1/1" xmlns:xsi="http://www.w3.org/2001/XMLSchema-instance" xsi:schemaLocation="http://www.topografix.com/GPX/1/1 http://www.topografix.com/GPX/1/1/gpx.xsd" version="1.1" creator="VisuGPX - https://www.visugpx.com">
  <metadata>
    <name>Islande : le Brennisteinsalda</name>
    <desc><![CDATA[Rando dans le Landmannalaugar permettant d\'atteindre le sommet du volcan Brennisteinsalda à 855m]]></desc>
  </metadata>
  <trk>
    <name><![CDATA[2015-07-08 15:44:57]]></name>
    <trkseg>
      <trkpt lat="63.99465" lon="-19.06002">
        <ele>587.92</ele>
        <time>2015-07-08T12:07:22Z</time>
      </trkpt>
      <trkpt lat="63.99465" lon="-19.06002">
        <ele>587.92</ele>
        <time>2015-07-08T12:07:23Z</time>
      </trkpt>
      <trkpt lat="63.99465" lon="-19.06002">
        <ele>588.17</ele>
        <time>2015-07-08T12:07:47Z</time>
      </trkpt>
      <trkpt lat="63.99458" lon="-19.0601">
        <ele>588.55</ele>
        <time>2015-07-08T12:08:06Z</time>
      </trkpt>
      <trkpt lat="63.99463" lon="-19.06029">
        <ele>591.68</ele>
        <time>2015-07-08T12:08:20Z</time>
      </trkpt>
      <trkpt lat="63.99463" lon="-19.06033">
        <ele>591.97</ele>
        <time>2015-07-08T12:08:22Z</time>
      </trkpt>
      <trkpt lat="63.99463" lon="-19.06039">
        <ele>592.25</ele>
        <time>2015-07-08T12:08:24Z</time>
      </trkpt>
      <trkpt lat="63.99463" lon="-19.06049">
        <ele>592.59</ele>
        <time>2015-07-08T12:08:28Z</time>
      </trkpt>
      <trkpt lat="63.99463" lon="-19.06056">
        <ele>592.7</ele>
        <time>2015-07-08T12:08:31Z</time>
      </trkpt>
      <trkpt lat="63.99457" lon="-19.06073">
        <ele>592.14</ele>
        <time>2015-07-08T12:08:40Z</time>
      </trkpt>
      <trkpt lat="63.99443" lon="-19.06086">
        <ele>589.16</ele>
        <time>2015-07-08T12:08:52Z</time>
      </trkpt>
      <trkpt lat="63.99439" lon="-19.06091">
        <ele>587.99</ele>
        <time>2015-07-08T12:09:00Z</time>
      </trkpt>
      <trkpt lat="63.99434" lon="-19.06086">
        <ele>587.95</ele>
        <time>2015-07-08T12:09:12Z</time>
      </trkpt>
      <trkpt lat="63.99427" lon="-19.06084">
        <ele>588.59</ele>
        <time>2015-07-08T12:09:22Z</time>
      </trkpt>
      <trkpt lat="63.99414" lon="-19.0608">
        <ele>588.16</ele>
        <time>2015-07-08T12:09:29Z</time>
      </trkpt>
      <trkpt lat="63.99401" lon="-19.06076">
        <ele>587.92</ele>
        <time>2015-07-08T12:09:42Z</time>
      </trkpt>
      <trkpt lat="63.99399" lon="-19.06076">
        <ele>587.94</ele>
        <time>2015-07-08T12:09:44Z</time>
      </trkpt>
      <trkpt lat="63.99392" lon="-19.06072">
        <ele>587.9</ele>
        <time>2015-07-08T12:09:48Z</time>
      </trkpt>
      <trkpt lat="63.9938" lon="-19.06066">
        <ele>587.62</ele>
        <time>2015-07-08T12:09:59Z</time>
      </trkpt>
      <trkpt lat="63.99379" lon="-19.06066">
        <ele>587.54</ele>
        <time>2015-07-08T12:10:01Z</time>
      </trkpt>
      <trkpt lat="63.99377" lon="-19.06066">
        <ele>587.49</ele>
        <time>2015-07-08T12:10:04Z</time>
      </trkpt>
      <trkpt lat="63.99369" lon="-19.06065">
        <ele>587.06</ele>
        <time>2015-07-08T12:10:20Z</time>
      </trkpt>
      <trkpt lat="63.99362" lon="-19.06068">
        <ele>587.31</ele>
        <time>2015-07-08T12:10:38Z</time>
      </trkpt>
      <trkpt lat="63.99346" lon="-19.06073">
        <ele>587.27</ele>
        <time>2015-07-08T12:10:51Z</time>
      </trkpt>
      <trkpt lat="63.99337" lon="-19.06053">
        <ele>587.2</ele>
        <time>2015-07-08T12:11:05Z</time>
      </trkpt>
      <trkpt lat="63.99334" lon="-19.06049">
        <ele>587.22</ele>
        <time>2015-07-08T12:11:08Z</time>
      </trkpt>
      <trkpt lat="63.99323" lon="-19.0604">
        <ele>587.44</ele>
        <time>2015-07-08T12:11:15Z</time>
      </trkpt>
      <trkpt lat="63.9931" lon="-19.0602">
        <ele>587.55</ele>
        <time>2015-07-08T12:11:27Z</time>
      </trkpt>
      <trkpt lat="63.99295" lon="-19.05998">
        <ele>588.01</ele>
        <time>2015-07-08T12:11:40Z</time>
      </trkpt>
      <trkpt lat="63.99281" lon="-19.05987">
        <ele>587.8</ele>
        <time>2015-07-08T12:11:51Z</time>
      </trkpt>
      <trkpt lat="63.99278" lon="-19.05984">
        <ele>587.89</ele>
        <time>2015-07-08T12:11:54Z</time>
      </trkpt>
      <trkpt lat="63.99258" lon="-19.05966">
        <ele>588.08</ele>
        <time>2015-07-08T12:12:06Z</time>
      </trkpt>
      <trkpt lat="63.99251" lon="-19.05962">
        <ele>588.15</ele>
        <time>2015-07-08T12:12:13Z</time>
      </trkpt>
      <trkpt lat="63.99248" lon="-19.05958">
        <ele>588.3</ele>
        <time>2015-07-08T12:12:16Z</time>
      </trkpt>
      <trkpt lat="63.99232" lon="-19.05945">
        <ele>588.65</ele>
        <time>2015-07-08T12:12:27Z</time>
      </trkpt>
      <trkpt lat="63.99227" lon="-19.0594">
        <ele>588.71</ele>
        <time>2015-07-08T12:12:33Z</time>
      </trkpt>
      <trkpt lat="63.99213" lon="-19.05929">
        <ele>588.62</ele>
        <time>2015-07-08T12:12:44Z</time>
      </trkpt>
      <trkpt lat="63.99207" lon="-19.05922">
        <ele>588.96</ele>
        <time>2015-07-08T12:12:59Z</time>
      </trkpt>
      <trkpt lat="63.99206" lon="-19.05921">
        <ele>588.99</ele>
        <time>2015-07-08T12:13:00Z</time>
      </trkpt>
      <trkpt lat="63.99202" lon="-19.05921">
        <ele>589.06</ele>
        <time>2015-07-08T12:13:03Z</time>
      </trkpt>
      <trkpt lat="63.99184" lon="-19.05929">
        <ele>588.82</ele>
        <time>2015-07-08T12:13:19Z</time>
      </trkpt>
      <trkpt lat="63.99179" lon="-19.05936">
        <ele>588.74</ele>
        <time>2015-07-08T12:13:24Z</time>
      </trkpt>
      <trkpt lat="63.99172" lon="-19.05943">
        <ele>588.72</ele>
        <time>2015-07-08T12:13:30Z</time>
      </trkpt>
      <trkpt lat="63.99152" lon="-19.05966">
        <ele>588.58</ele>
        <time>2015-07-08T12:13:47Z</time>
      </trkpt>
      <trkpt lat="63.99135" lon="-19.05984">
        <ele>588.58</ele>
        <time>2015-07-08T12:14:01Z</time>
      </trkpt>
      <trkpt lat="63.99116" lon="-19.06009">
        <ele>588.78</ele>
        <time>2015-07-08T12:14:18Z</time>
      </trkpt>
      <trkpt lat="63.99099" lon="-19.06031">
        <ele>589.42</ele>
        <time>2015-07-08T12:14:34Z</time>
      </trkpt>
      <trkpt lat="63.99084" lon="-19.06047">
        <ele>589.23</ele>
        <time>2015-07-08T12:14:47Z</time>
      </trkpt>
      <trkpt lat="63.99078" lon="-19.06053">
        <ele>589.94</ele>
        <time>2015-07-08T12:15:03Z</time>
      </trkpt>
      <trkpt lat="63.99068" lon="-19.06066">
        <ele>589.75</ele>
        <time>2015-07-08T12:15:15Z</time>
      </trkpt>
      <trkpt lat="63.99058" lon="-19.0606">
        <ele>590.28</ele>
        <time>2015-07-08T12:15:32Z</time>
      </trkpt>
      <trkpt lat="63.99058" lon="-19.0606">
        <ele>590.06</ele>
        <time>2015-07-08T12:15:55Z</time>
      </trkpt>
      <trkpt lat="63.99055" lon="-19.06055">
        <ele>590.12</ele>
        <time>2015-07-08T12:16:04Z</time>
      </trkpt>
      <trkpt lat="63.99052" lon="-19.06042">
        <ele>590.09</ele>
        <time>2015-07-08T12:16:10Z</time>
      </trkpt>
      <trkpt lat="63.99042" lon="-19.06028">
        <ele>589.83</ele>
        <time>2015-07-08T12:16:20Z</time>
      </trkpt>
      <trkpt lat="63.99025" lon="-19.06021">
        <ele>590.04</ele>
        <time>2015-07-08T12:16:33Z</time>
      </trkpt>
      <trkpt lat="63.99016" lon="-19.06019">
        <ele>590.35</ele>
        <time>2015-07-08T12:16:41Z</time>
      </trkpt>
      <trkpt lat="63.98999" lon="-19.06017">
        <ele>590.68</ele>
        <time>2015-07-08T12:16:55Z</time>
      </trkpt>
      <trkpt lat="63.98982" lon="-19.06005">
        <ele>591.14</ele>
        <time>2015-07-08T12:17:09Z</time>
      </trkpt>
      <trkpt lat="63.98976" lon="-19.06001">
        <ele>591.24</ele>
        <time>2015-07-08T12:17:13Z</time>
      </trkpt>
      <trkpt lat="63.9897" lon="-19.05999">
        <ele>591.32</ele>
        <time>2015-07-08T12:17:19Z</time>
      </trkpt>
      <trkpt lat="63.98962" lon="-19.05982">
        <ele>591.69</ele>
        <time>2015-07-08T12:17:29Z</time>
      </trkpt>
      <trkpt lat="63.98955" lon="-19.05974">
        <ele>592.06</ele>
        <time>2015-07-08T12:17:35Z</time>
      </trkpt>
      <trkpt lat="63.98946" lon="-19.05957">
        <ele>592.2</ele>
        <time>2015-07-08T12:17:45Z</time>
      </trkpt>
      <trkpt lat="63.98932" lon="-19.05937">
        <ele>592.38</ele>
        <time>2015-07-08T12:17:58Z</time>
      </trkpt>
      <trkpt lat="63.98929" lon="-19.05933">
        <ele>592.54</ele>
        <time>2015-07-08T12:18:03Z</time>
      </trkpt>
      <trkpt lat="63.98924" lon="-19.05931">
        <ele>592.67</ele>
        <time>2015-07-08T12:18:08Z</time>
      </trkpt>
      <trkpt lat="63.98916" lon="-19.05934">
        <ele>592.71</ele>
        <time>2015-07-08T12:18:14Z</time>
      </trkpt>
      <trkpt lat="63.98904" lon="-19.05949">
        <ele>593.24</ele>
        <time>2015-07-08T12:18:27Z</time>
      </trkpt>
      <trkpt lat="63.98899" lon="-19.05951">
        <ele>594.02</ele>
        <time>2015-07-08T12:18:33Z</time>
      </trkpt>
      <trkpt lat="63.9889" lon="-19.05947">
        <ele>595.77</ele>
        <time>2015-07-08T12:18:44Z</time>
      </trkpt>
      <trkpt lat="63.98877" lon="-19.05944">
        <ele>594.94</ele>
        <time>2015-07-08T12:18:55Z</time>
      </trkpt>
      <trkpt lat="63.98876" lon="-19.05941">
        <ele>594.92</ele>
        <time>2015-07-08T12:18:57Z</time>
      </trkpt>
      <trkpt lat="63.98865" lon="-19.05932">
        <ele>594.98</ele>
        <time>2015-07-08T12:19:05Z</time>
      </trkpt>
      <trkpt lat="63.98864" lon="-19.05933">
        <ele>595.01</ele>
        <time>2015-07-08T12:19:07Z</time>
      </trkpt>
      <trkpt lat="63.98854" lon="-19.05931">
        <ele>595.1</ele>
        <time>2015-07-08T12:19:15Z</time>
      </trkpt>
      <trkpt lat="63.98851" lon="-19.05926">
        <ele>595.27</ele>
        <time>2015-07-08T12:19:23Z</time>
      </trkpt>
      <trkpt lat="63.98848" lon="-19.05925">
        <ele>595.73</ele>
        <time>2015-07-08T12:19:39Z</time>
      </trkpt>
      <trkpt lat="63.98847" lon="-19.05925">
        <ele>595.66</ele>
        <time>2015-07-08T12:19:44Z</time>
      </trkpt>
      <trkpt lat="63.9883" lon="-19.0593">
        <ele>595.83</ele>
        <time>2015-07-08T12:19:59Z</time>
      </trkpt>
      <trkpt lat="63.98827" lon="-19.05933">
        <ele>595.83</ele>
        <time>2015-07-08T12:20:01Z</time>
      </trkpt>
      <trkpt lat="63.98814" lon="-19.05932">
        <ele>595.92</ele>
        <time>2015-07-08T12:20:11Z</time>
      </trkpt>
      <trkpt lat="63.98792" lon="-19.05941">
        <ele>596.54</ele>
        <time>2015-07-08T12:20:28Z</time>
      </trkpt>
      <trkpt lat="63.98776" lon="-19.05941">
        <ele>596.99</ele>
        <time>2015-07-08T12:20:42Z</time>
      </trkpt>
      <trkpt lat="63.98762" lon="-19.0593">
        <ele>597.22</ele>
        <time>2015-07-08T12:20:54Z</time>
      </trkpt>
      <trkpt lat="63.98744" lon="-19.05925">
        <ele>597.58</ele>
        <time>2015-07-08T12:21:07Z</time>
      </trkpt>
      <trkpt lat="63.98744" lon="-19.05925">
        <ele>597.68</ele>
        <time>2015-07-08T12:21:08Z</time>
      </trkpt>
      <trkpt lat="63.98737" lon="-19.05926">
        <ele>598.24</ele>
        <time>2015-07-08T12:21:14Z</time>
      </trkpt>
      <trkpt lat="63.98723" lon="-19.0593">
        <ele>598.56</ele>
        <time>2015-07-08T12:21:27Z</time>
      </trkpt>
      <trkpt lat="63.9871" lon="-19.05939">
        <ele>598.63</ele>
        <time>2015-07-08T12:21:38Z</time>
      </trkpt>
      <trkpt lat="63.987" lon="-19.05948">
        <ele>598.9</ele>
        <time>2015-07-08T12:21:47Z</time>
      </trkpt>
      <trkpt lat="63.98684" lon="-19.05956">
        <ele>599.03</ele>
        <time>2015-07-08T12:21:58Z</time>
      </trkpt>
      <trkpt lat="63.9868" lon="-19.05961">
        <ele>598.99</ele>
        <time>2015-07-08T12:22:02Z</time>
      </trkpt>
      <trkpt lat="63.98672" lon="-19.05968">
        <ele>599.31</ele>
        <time>2015-07-08T12:22:09Z</time>
      </trkpt>
      <trkpt lat="63.98662" lon="-19.05987">
        <ele>599.56</ele>
        <time>2015-07-08T12:22:23Z</time>
      </trkpt>
      <trkpt lat="63.98658" lon="-19.05993">
        <ele>599.69</ele>
        <time>2015-07-08T12:22:28Z</time>
      </trkpt>
      <trkpt lat="63.9865" lon="-19.05998">
        <ele>599.8</ele>
        <time>2015-07-08T12:22:33Z</time>
      </trkpt>
      <trkpt lat="63.98648" lon="-19.06">
        <ele>599.81</ele>
        <time>2015-07-08T12:22:36Z</time>
      </trkpt>
      <trkpt lat="63.98646" lon="-19.06002">
        <ele>599.85</ele>
        <time>2015-07-08T12:22:38Z</time>
      </trkpt>
      <trkpt lat="63.98636" lon="-19.05991">
        <ele>600.96</ele>
        <time>2015-07-08T12:22:52Z</time>
      </trkpt>
      <trkpt lat="63.98631" lon="-19.05989">
        <ele>601.2</ele>
        <time>2015-07-08T12:23:01Z</time>
      </trkpt>
      <trkpt lat="63.98628" lon="-19.05986">
        <ele>601.54</ele>
        <time>2015-07-08T12:23:15Z</time>
      </trkpt>
      <trkpt lat="63.98628" lon="-19.05984">
        <ele>601.41</ele>
        <time>2015-07-08T12:23:40Z</time>
      </trkpt>
      <trkpt lat="63.98627" lon="-19.05984">
        <ele>601.59</ele>
        <time>2015-07-08T12:24:02Z</time>
      </trkpt>
      <trkpt lat="63.98625" lon="-19.05984">
        <ele>601.51</ele>
        <time>2015-07-08T12:24:29Z</time>
      </trkpt>
      <trkpt lat="63.98624" lon="-19.05983">
        <ele>601.8</ele>
        <time>2015-07-08T12:24:54Z</time>
      </trkpt>
      <trkpt lat="63.98623" lon="-19.05986">
        <ele>601.85</ele>
        <time>2015-07-08T12:25:18Z</time>
      </trkpt>
      <trkpt lat="63.98619" lon="-19.05988">
        <ele>601.96</ele>
        <time>2015-07-08T12:25:43Z</time>
      </trkpt>
      <trkpt lat="63.98618" lon="-19.05992">
        <ele>601.65</ele>
        <time>2015-07-08T12:25:54Z</time>
      </trkpt>
      <trkpt lat="63.98615" lon="-19.05998">
        <ele>601.42</ele>
        <time>2015-07-08T12:25:57Z</time>
      </trkpt>
      <trkpt lat="63.98613" lon="-19.06002">
        <ele>601.39</ele>
        <time>2015-07-08T12:26:01Z</time>
      </trkpt>
      <trkpt lat="63.9861" lon="-19.0601">
        <ele>601.77</ele>
        <time>2015-07-08T12:26:14Z</time>
      </trkpt>
      <trkpt lat="63.98607" lon="-19.06017">
        <ele>601.85</ele>
        <time>2015-07-08T12:26:17Z</time>
      </trkpt>
      <trkpt lat="63.98605" lon="-19.06029">
        <ele>601.99</ele>
        <time>2015-07-08T12:26:22Z</time>
      </trkpt>
      <trkpt lat="63.98604" lon="-19.06055">
        <ele>602.28</ele>
        <time>2015-07-08T12:26:31Z</time>
      </trkpt>
      <trkpt lat="63.98607" lon="-19.06084">
        <ele>603.55</ele>
        <time>2015-07-08T12:26:46Z</time>
      </trkpt>
      <trkpt lat="63.98609" lon="-19.0608">
        <ele>603.76</ele>
        <time>2015-07-08T12:26:49Z</time>
      </trkpt>
      <trkpt lat="63.98616" lon="-19.06084">
        <ele>603.56</ele>
        <time>2015-07-08T12:26:54Z</time>
      </trkpt>
      <trkpt lat="63.98623" lon="-19.06092">
        <ele>602.55</ele>
        <time>2015-07-08T12:27:04Z</time>
      </trkpt>
      <trkpt lat="63.98625" lon="-19.06093">
        <ele>602.66</ele>
        <time>2015-07-08T12:27:16Z</time>
      </trkpt>
      <trkpt lat="63.98625" lon="-19.06095">
        <ele>602.67</ele>
        <time>2015-07-08T12:27:17Z</time>
      </trkpt>
      <trkpt lat="63.98624" lon="-19.06101">
        <ele>602.63</ele>
        <time>2015-07-08T12:27:19Z</time>
      </trkpt>
      <trkpt lat="63.98616" lon="-19.06117">
        <ele>602.68</ele>
        <time>2015-07-08T12:27:30Z</time>
      </trkpt>
      <trkpt lat="63.98615" lon="-19.06124">
        <ele>602.96</ele>
        <time>2015-07-08T12:27:34Z</time>
      </trkpt>
      <trkpt lat="63.98609" lon="-19.06139">
        <ele>604.17</ele>
        <time>2015-07-08T12:27:44Z</time>
      </trkpt>
      <trkpt lat="63.98602" lon="-19.06157">
        <ele>605</ele>
        <time>2015-07-08T12:27:54Z</time>
      </trkpt>
      <trkpt lat="63.98594" lon="-19.06165">
        <ele>605.17</ele>
        <time>2015-07-08T12:28:00Z</time>
      </trkpt>
      <trkpt lat="63.98586" lon="-19.0618">
        <ele>605.46</ele>
        <time>2015-07-08T12:28:12Z</time>
      </trkpt>
      <trkpt lat="63.98584" lon="-19.06181">
        <ele>605.59</ele>
        <time>2015-07-08T12:28:14Z</time>
      </trkpt>
      <trkpt lat="63.98575" lon="-19.06183">
        <ele>604.72</ele>
        <time>2015-07-08T12:28:23Z</time>
      </trkpt>
      <trkpt lat="63.9856" lon="-19.06194">
        <ele>604.7</ele>
        <time>2015-07-08T12:28:36Z</time>
      </trkpt>
      <trkpt lat="63.98551" lon="-19.06199">
        <ele>604.58</ele>
        <time>2015-07-08T12:28:42Z</time>
      </trkpt>
      <trkpt lat="63.98549" lon="-19.06205">
        <ele>604.6</ele>
        <time>2015-07-08T12:28:47Z</time>
      </trkpt>
      <trkpt lat="63.98542" lon="-19.06215">
        <ele>604.81</ele>
        <time>2015-07-08T12:28:58Z</time>
      </trkpt>
      <trkpt lat="63.98535" lon="-19.06233">
        <ele>605.16</ele>
        <time>2015-07-08T12:29:13Z</time>
      </trkpt>
      <trkpt lat="63.98529" lon="-19.06242">
        <ele>605.28</ele>
        <time>2015-07-08T12:29:19Z</time>
      </trkpt>
      <trkpt lat="63.98528" lon="-19.06246">
        <ele>605.33</ele>
        <time>2015-07-08T12:29:21Z</time>
      </trkpt>
      <trkpt lat="63.98523" lon="-19.06253">
        <ele>605.59</ele>
        <time>2015-07-08T12:29:26Z</time>
      </trkpt>
      <trkpt lat="63.98517" lon="-19.06259">
        <ele>606.17</ele>
        <time>2015-07-08T12:29:31Z</time>
      </trkpt>
      <trkpt lat="63.98507" lon="-19.06271">
        <ele>606.86</ele>
        <time>2015-07-08T12:29:41Z</time>
      </trkpt>
      <trkpt lat="63.98496" lon="-19.06285">
        <ele>608.31</ele>
        <time>2015-07-08T12:29:57Z</time>
      </trkpt>
      <trkpt lat="63.98493" lon="-19.06288">
        <ele>608.65</ele>
        <time>2015-07-08T12:30:03Z</time>
      </trkpt>
      <trkpt lat="63.98491" lon="-19.0629">
        <ele>608.69</ele>
        <time>2015-07-08T12:30:05Z</time>
      </trkpt>
      <trkpt lat="63.98487" lon="-19.063">
        <ele>608.92</ele>
        <time>2015-07-08T12:30:14Z</time>
      </trkpt>
      <trkpt lat="63.98484" lon="-19.06308">
        <ele>609.26</ele>
        <time>2015-07-08T12:30:20Z</time>
      </trkpt>
      <trkpt lat="63.98482" lon="-19.06317">
        <ele>609.95</ele>
        <time>2015-07-08T12:30:30Z</time>
      </trkpt>
      <trkpt lat="63.98478" lon="-19.06328">
        <ele>610.7</ele>
        <time>2015-07-08T12:30:47Z</time>
      </trkpt>
      <trkpt lat="63.98477" lon="-19.06329">
        <ele>610.9</ele>
        <time>2015-07-08T12:31:01Z</time>
      </trkpt>
      <trkpt lat="63.98476" lon="-19.06334">
        <ele>610.88</ele>
        <time>2015-07-08T12:31:04Z</time>
      </trkpt>
      <trkpt lat="63.98473" lon="-19.06343">
        <ele>610.82</ele>
        <time>2015-07-08T12:31:09Z</time>
      </trkpt>
      <trkpt lat="63.98472" lon="-19.06347">
        <ele>610.88</ele>
        <time>2015-07-08T12:31:11Z</time>
      </trkpt>
      <trkpt lat="63.98468" lon="-19.06354">
        <ele>611.19</ele>
        <time>2015-07-08T12:31:25Z</time>
      </trkpt>
      <trkpt lat="63.98464" lon="-19.06364">
        <ele>611.16</ele>
        <time>2015-07-08T12:31:30Z</time>
      </trkpt>
      <trkpt lat="63.98452" lon="-19.06392">
        <ele>611.02</ele>
        <time>2015-07-08T12:31:45Z</time>
      </trkpt>
      <trkpt lat="63.98442" lon="-19.0641">
        <ele>610.31</ele>
        <time>2015-07-08T12:31:57Z</time>
      </trkpt>
      <trkpt lat="63.98436" lon="-19.06427">
        <ele>609.49</ele>
        <time>2015-07-08T12:32:07Z</time>
      </trkpt>
      <trkpt lat="63.98431" lon="-19.06432">
        <ele>608.95</ele>
        <time>2015-07-08T12:32:12Z</time>
      </trkpt>
      <trkpt lat="63.98426" lon="-19.06437">
        <ele>608</ele>
        <time>2015-07-08T12:32:30Z</time>
      </trkpt>
      <trkpt lat="63.98425" lon="-19.06437">
        <ele>608.25</ele>
        <time>2015-07-08T12:32:42Z</time>
      </trkpt>
      <trkpt lat="63.98424" lon="-19.06439">
        <ele>607.7</ele>
        <time>2015-07-08T12:32:58Z</time>
      </trkpt>
      <trkpt lat="63.98423" lon="-19.06442">
        <ele>608.17</ele>
        <time>2015-07-08T12:33:28Z</time>
      </trkpt>
      <trkpt lat="63.98423" lon="-19.06443">
        <ele>608.22</ele>
        <time>2015-07-08T12:33:33Z</time>
      </trkpt>
      <trkpt lat="63.98423" lon="-19.06447">
        <ele>608.23</ele>
        <time>2015-07-08T12:33:35Z</time>
      </trkpt>
      <trkpt lat="63.9842" lon="-19.06459">
        <ele>608.35</ele>
        <time>2015-07-08T12:33:41Z</time>
      </trkpt>
      <trkpt lat="63.9842" lon="-19.06463">
        <ele>608.34</ele>
        <time>2015-07-08T12:33:43Z</time>
      </trkpt>
      <trkpt lat="63.98421" lon="-19.0647">
        <ele>608.72</ele>
        <time>2015-07-08T12:33:59Z</time>
      </trkpt>
      <trkpt lat="63.9842" lon="-19.06468">
        <ele>608.63</ele>
        <time>2015-07-08T12:34:22Z</time>
      </trkpt>
      <trkpt lat="63.9842" lon="-19.06481">
        <ele>608.87</ele>
        <time>2015-07-08T12:34:38Z</time>
      </trkpt>
      <trkpt lat="63.98419" lon="-19.06486">
        <ele>609.06</ele>
        <time>2015-07-08T12:34:40Z</time>
      </trkpt>
      <trkpt lat="63.98416" lon="-19.06499">
        <ele>609.45</ele>
        <time>2015-07-08T12:34:49Z</time>
      </trkpt>
      <trkpt lat="63.98409" lon="-19.06546">
        <ele>610.39</ele>
        <time>2015-07-08T12:35:03Z</time>
      </trkpt>
      <trkpt lat="63.98408" lon="-19.0655">
        <ele>610.6</ele>
        <time>2015-07-08T12:35:05Z</time>
      </trkpt>
      <trkpt lat="63.98405" lon="-19.06568">
        <ele>611.31</ele>
        <time>2015-07-08T12:35:12Z</time>
      </trkpt>
      <trkpt lat="63.98403" lon="-19.0658">
        <ele>611.44</ele>
        <time>2015-07-08T12:35:17Z</time>
      </trkpt>
      <trkpt lat="63.98401" lon="-19.06593">
        <ele>611.43</ele>
        <time>2015-07-08T12:35:22Z</time>
      </trkpt>
      <trkpt lat="63.98397" lon="-19.06601">
        <ele>611.35</ele>
        <time>2015-07-08T12:35:26Z</time>
      </trkpt>
      <trkpt lat="63.98392" lon="-19.06635">
        <ele>612.36</ele>
        <time>2015-07-08T12:35:39Z</time>
      </trkpt>
      <trkpt lat="63.98393" lon="-19.0664">
        <ele>612.66</ele>
        <time>2015-07-08T12:35:41Z</time>
      </trkpt>
      <trkpt lat="63.98392" lon="-19.06663">
        <ele>612.95</ele>
        <time>2015-07-08T12:35:49Z</time>
      </trkpt>
      <trkpt lat="63.9839" lon="-19.06683">
        <ele>611.86</ele>
        <time>2015-07-08T12:36:02Z</time>
      </trkpt>
      <trkpt lat="63.98391" lon="-19.06688">
        <ele>611.77</ele>
        <time>2015-07-08T12:36:05Z</time>
      </trkpt>
      <trkpt lat="63.98388" lon="-19.06707">
        <ele>612.06</ele>
        <time>2015-07-08T12:36:13Z</time>
      </trkpt>
      <trkpt lat="63.98383" lon="-19.06734">
        <ele>611.71</ele>
        <time>2015-07-08T12:36:26Z</time>
      </trkpt>
      <trkpt lat="63.98383" lon="-19.06736">
        <ele>611.66</ele>
        <time>2015-07-08T12:36:28Z</time>
      </trkpt>
      <trkpt lat="63.98378" lon="-19.06771">
        <ele>612.13</ele>
        <time>2015-07-08T12:36:42Z</time>
      </trkpt>
      <trkpt lat="63.98378" lon="-19.06803">
        <ele>612.36</ele>
        <time>2015-07-08T12:36:55Z</time>
      </trkpt>
      <trkpt lat="63.98376" lon="-19.06808">
        <ele>612.42</ele>
        <time>2015-07-08T12:36:58Z</time>
      </trkpt>
      <trkpt lat="63.98372" lon="-19.06816">
        <ele>612.54</ele>
        <time>2015-07-08T12:37:02Z</time>
      </trkpt>
      <trkpt lat="63.98366" lon="-19.06827">
        <ele>612.67</ele>
        <time>2015-07-08T12:37:08Z</time>
      </trkpt>
      <trkpt lat="63.98364" lon="-19.06846">
        <ele>613.16</ele>
        <time>2015-07-08T12:37:16Z</time>
      </trkpt>
      <trkpt lat="63.9836" lon="-19.0686">
        <ele>613.51</ele>
        <time>2015-07-08T12:37:23Z</time>
      </trkpt>
      <trkpt lat="63.98358" lon="-19.06884">
        <ele>613.82</ele>
        <time>2015-07-08T12:37:32Z</time>
      </trkpt>
      <trkpt lat="63.98358" lon="-19.06898">
        <ele>613.91</ele>
        <time>2015-07-08T12:37:38Z</time>
      </trkpt>
      <trkpt lat="63.98358" lon="-19.06908">
        <ele>613.92</ele>
        <time>2015-07-08T12:37:42Z</time>
      </trkpt>
      <trkpt lat="63.98359" lon="-19.06925">
        <ele>614.14</ele>
        <time>2015-07-08T12:37:49Z</time>
      </trkpt>
      <trkpt lat="63.98362" lon="-19.06941">
        <ele>614.3</ele>
        <time>2015-07-08T12:37:56Z</time>
      </trkpt>
      <trkpt lat="63.98363" lon="-19.06955">
        <ele>614.73</ele>
        <time>2015-07-08T12:38:01Z</time>
      </trkpt>
      <trkpt lat="63.98362" lon="-19.06966">
        <ele>615.41</ele>
        <time>2015-07-08T12:38:13Z</time>
      </trkpt>
      <trkpt lat="63.98365" lon="-19.06971">
        <ele>616.42</ele>
        <time>2015-07-08T12:38:38Z</time>
      </trkpt>
      <trkpt lat="63.98361" lon="-19.06968">
        <ele>616.53</ele>
        <time>2015-07-08T12:38:54Z</time>
      </trkpt>
      <trkpt lat="63.9836" lon="-19.06972">
        <ele>616.56</ele>
        <time>2015-07-08T12:38:56Z</time>
      </trkpt>
      <trkpt lat="63.98359" lon="-19.0698">
        <ele>616.8</ele>
        <time>2015-07-08T12:39:00Z</time>
      </trkpt>
      <trkpt lat="63.98361" lon="-19.06992">
        <ele>617.2</ele>
        <time>2015-07-08T12:39:06Z</time>
      </trkpt>
      <trkpt lat="63.98362" lon="-19.07006">
        <ele>617.25</ele>
        <time>2015-07-08T12:39:12Z</time>
      </trkpt>
      <trkpt lat="63.98366" lon="-19.07025">
        <ele>617.77</ele>
        <time>2015-07-08T12:39:20Z</time>
      </trkpt>
      <trkpt lat="63.9837" lon="-19.07041">
        <ele>618.27</ele>
        <time>2015-07-08T12:39:27Z</time>
      </trkpt>
      <trkpt lat="63.98372" lon="-19.07049">
        <ele>618.4</ele>
        <time>2015-07-08T12:39:31Z</time>
      </trkpt>
      <trkpt lat="63.98376" lon="-19.07054">
        <ele>618.41</ele>
        <time>2015-07-08T12:39:35Z</time>
      </trkpt>
      <trkpt lat="63.98375" lon="-19.07066">
        <ele>618.4</ele>
        <time>2015-07-08T12:39:42Z</time>
      </trkpt>
      <trkpt lat="63.9837" lon="-19.07092">
        <ele>617.32</ele>
        <time>2015-07-08T12:39:53Z</time>
      </trkpt>
      <trkpt lat="63.98367" lon="-19.07119">
        <ele>617.87</ele>
        <time>2015-07-08T12:40:07Z</time>
      </trkpt>
      <trkpt lat="63.98366" lon="-19.07121">
        <ele>617.98</ele>
        <time>2015-07-08T12:40:08Z</time>
      </trkpt>
      <trkpt lat="63.98363" lon="-19.07132">
        <ele>618.6</ele>
        <time>2015-07-08T12:40:13Z</time>
      </trkpt>
      <trkpt lat="63.98359" lon="-19.07141">
        <ele>618.48</ele>
        <time>2015-07-08T12:40:17Z</time>
      </trkpt>
      <trkpt lat="63.98357" lon="-19.07157">
        <ele>618.84</ele>
        <time>2015-07-08T12:40:23Z</time>
      </trkpt>
      <trkpt lat="63.98355" lon="-19.07166">
        <ele>619</ele>
        <time>2015-07-08T12:40:26Z</time>
      </trkpt>
      <trkpt lat="63.98356" lon="-19.07201">
        <ele>620.05</ele>
        <time>2015-07-08T12:40:42Z</time>
      </trkpt>
      <trkpt lat="63.98356" lon="-19.07204">
        <ele>620.29</ele>
        <time>2015-07-08T12:40:49Z</time>
      </trkpt>
      <trkpt lat="63.98359" lon="-19.07219">
        <ele>620.13</ele>
        <time>2015-07-08T12:40:55Z</time>
      </trkpt>
      <trkpt lat="63.98359" lon="-19.07231">
        <ele>620.35</ele>
        <time>2015-07-08T12:41:06Z</time>
      </trkpt>
      <trkpt lat="63.98361" lon="-19.07226">
        <ele>620.27</ele>
        <time>2015-07-08T12:41:32Z</time>
      </trkpt>
      <trkpt lat="63.9836" lon="-19.07225">
        <ele>620.35</ele>
        <time>2015-07-08T12:41:54Z</time>
      </trkpt>
      <trkpt lat="63.9836" lon="-19.07224">
        <ele>620.25</ele>
        <time>2015-07-08T12:42:15Z</time>
      </trkpt>
      <trkpt lat="63.98361" lon="-19.07232">
        <ele>620.64</ele>
        <time>2015-07-08T12:42:18Z</time>
      </trkpt>
      <trkpt lat="63.98367" lon="-19.07242">
        <ele>621.13</ele>
        <time>2015-07-08T12:42:25Z</time>
      </trkpt>
      <trkpt lat="63.9837" lon="-19.07246">
        <ele>621.09</ele>
        <time>2015-07-08T12:42:42Z</time>
      </trkpt>
      <trkpt lat="63.98372" lon="-19.07249">
        <ele>621.05</ele>
        <time>2015-07-08T12:42:44Z</time>
      </trkpt>
      <trkpt lat="63.98378" lon="-19.07265">
        <ele>621.49</ele>
        <time>2015-07-08T12:42:51Z</time>
      </trkpt>
      <trkpt lat="63.98383" lon="-19.07275">
        <ele>621.62</ele>
        <time>2015-07-08T12:42:56Z</time>
      </trkpt>
      <trkpt lat="63.98387" lon="-19.07284">
        <ele>622.66</ele>
        <time>2015-07-08T12:43:08Z</time>
      </trkpt>
      <trkpt lat="63.98389" lon="-19.07291">
        <ele>622.73</ele>
        <time>2015-07-08T12:43:12Z</time>
      </trkpt>
      <trkpt lat="63.98395" lon="-19.07315">
        <ele>626.05</ele>
        <time>2015-07-08T12:43:27Z</time>
      </trkpt>
      <trkpt lat="63.98396" lon="-19.07326">
        <ele>627.35</ele>
        <time>2015-07-08T12:43:39Z</time>
      </trkpt>
      <trkpt lat="63.98396" lon="-19.0732">
        <ele>627.37</ele>
        <time>2015-07-08T12:44:03Z</time>
      </trkpt>
      <trkpt lat="63.98398" lon="-19.0733">
        <ele>627.45</ele>
        <time>2015-07-08T12:44:09Z</time>
      </trkpt>
      <trkpt lat="63.98401" lon="-19.07341">
        <ele>627.49</ele>
        <time>2015-07-08T12:44:13Z</time>
      </trkpt>
      <trkpt lat="63.98403" lon="-19.07357">
        <ele>627.33</ele>
        <time>2015-07-08T12:44:19Z</time>
      </trkpt>
      <trkpt lat="63.98402" lon="-19.07403">
        <ele>628.29</ele>
        <time>2015-07-08T12:44:36Z</time>
      </trkpt>
      <trkpt lat="63.98401" lon="-19.07424">
        <ele>628.57</ele>
        <time>2015-07-08T12:44:43Z</time>
      </trkpt>
      <trkpt lat="63.98401" lon="-19.07438">
        <ele>629.05</ele>
        <time>2015-07-08T12:44:48Z</time>
      </trkpt>
      <trkpt lat="63.98399" lon="-19.07454">
        <ele>629.23</ele>
        <time>2015-07-08T12:44:54Z</time>
      </trkpt>
      <trkpt lat="63.98393" lon="-19.07472">
        <ele>629.11</ele>
        <time>2015-07-08T12:45:04Z</time>
      </trkpt>
      <trkpt lat="63.98392" lon="-19.07481">
        <ele>628.16</ele>
        <time>2015-07-08T12:45:09Z</time>
      </trkpt>
      <trkpt lat="63.98394" lon="-19.07487">
        <ele>627.76</ele>
        <time>2015-07-08T12:45:12Z</time>
      </trkpt>
      <trkpt lat="63.98395" lon="-19.07491">
        <ele>627.53</ele>
        <time>2015-07-08T12:45:14Z</time>
      </trkpt>
      <trkpt lat="63.98394" lon="-19.07512">
        <ele>627.13</ele>
        <time>2015-07-08T12:45:26Z</time>
      </trkpt>
      <trkpt lat="63.98392" lon="-19.07519">
        <ele>626.67</ele>
        <time>2015-07-08T12:45:29Z</time>
      </trkpt>
      <trkpt lat="63.98387" lon="-19.07536">
        <ele>624.81</ele>
        <time>2015-07-08T12:45:36Z</time>
      </trkpt>
      <trkpt lat="63.98385" lon="-19.07542">
        <ele>624.22</ele>
        <time>2015-07-08T12:45:39Z</time>
      </trkpt>
      <trkpt lat="63.98381" lon="-19.07566">
        <ele>624.36</ele>
        <time>2015-07-08T12:45:48Z</time>
      </trkpt>
      <trkpt lat="63.98377" lon="-19.07584">
        <ele>624.95</ele>
        <time>2015-07-08T12:46:00Z</time>
      </trkpt>
      <trkpt lat="63.98376" lon="-19.07587">
        <ele>624.86</ele>
        <time>2015-07-08T12:46:05Z</time>
      </trkpt>
      <trkpt lat="63.98376" lon="-19.07593">
        <ele>624.98</ele>
        <time>2015-07-08T12:46:07Z</time>
      </trkpt>
      <trkpt lat="63.98368" lon="-19.07613">
        <ele>625.42</ele>
        <time>2015-07-08T12:46:19Z</time>
      </trkpt>
      <trkpt lat="63.98363" lon="-19.0762">
        <ele>624.68</ele>
        <time>2015-07-08T12:46:25Z</time>
      </trkpt>
      <trkpt lat="63.98356" lon="-19.07632">
        <ele>625.24</ele>
        <time>2015-07-08T12:46:33Z</time>
      </trkpt>
      <trkpt lat="63.98354" lon="-19.07641">
        <ele>625.37</ele>
        <time>2015-07-08T12:46:37Z</time>
      </trkpt>
      <trkpt lat="63.98352" lon="-19.07651">
        <ele>626.36</ele>
        <time>2015-07-08T12:46:42Z</time>
      </trkpt>
      <trkpt lat="63.98347" lon="-19.0768">
        <ele>627.73</ele>
        <time>2015-07-08T12:46:56Z</time>
      </trkpt>
      <trkpt lat="63.98347" lon="-19.07692">
        <ele>629.38</ele>
        <time>2015-07-08T12:47:03Z</time>
      </trkpt>
      <trkpt lat="63.98348" lon="-19.07713">
        <ele>631.88</ele>
        <time>2015-07-08T12:47:18Z</time>
      </trkpt>
      <trkpt lat="63.98346" lon="-19.07716">
        <ele>632.73</ele>
        <time>2015-07-08T12:47:21Z</time>
      </trkpt>
      <trkpt lat="63.98349" lon="-19.07731">
        <ele>636.18</ele>
        <time>2015-07-08T12:47:34Z</time>
      </trkpt>
      <trkpt lat="63.98354" lon="-19.07756">
        <ele>638.37</ele>
        <time>2015-07-08T12:47:47Z</time>
      </trkpt>
      <trkpt lat="63.98359" lon="-19.07769">
        <ele>639.46</ele>
        <time>2015-07-08T12:47:55Z</time>
      </trkpt>
      <trkpt lat="63.98367" lon="-19.07781">
        <ele>640.06</ele>
        <time>2015-07-08T12:48:05Z</time>
      </trkpt>
      <trkpt lat="63.98372" lon="-19.07794">
        <ele>641.84</ele>
        <time>2015-07-08T12:48:13Z</time>
      </trkpt>
      <trkpt lat="63.98379" lon="-19.07807">
        <ele>642.47</ele>
        <time>2015-07-08T12:48:28Z</time>
      </trkpt>
      <trkpt lat="63.98382" lon="-19.07791">
        <ele>642.77</ele>
        <time>2015-07-08T12:48:40Z</time>
      </trkpt>
      <trkpt lat="63.98398" lon="-19.07775">
        <ele>643.14</ele>
        <time>2015-07-08T12:48:57Z</time>
      </trkpt>
      <trkpt lat="63.98401" lon="-19.07782">
        <ele>645.99</ele>
        <time>2015-07-08T12:49:12Z</time>
      </trkpt>
      <trkpt lat="63.98406" lon="-19.07801">
        <ele>646.59</ele>
        <time>2015-07-08T12:49:28Z</time>
      </trkpt>
      <trkpt lat="63.98402" lon="-19.07818">
        <ele>646.92</ele>
        <time>2015-07-08T12:49:42Z</time>
      </trkpt>
      <trkpt lat="63.98402" lon="-19.07837">
        <ele>648.85</ele>
        <time>2015-07-08T12:49:57Z</time>
      </trkpt>
      <trkpt lat="63.984" lon="-19.07852">
        <ele>650.75</ele>
        <time>2015-07-08T12:50:11Z</time>
      </trkpt>
      <trkpt lat="63.98399" lon="-19.0787">
        <ele>652.26</ele>
        <time>2015-07-08T12:50:29Z</time>
      </trkpt>
      <trkpt lat="63.98396" lon="-19.07884">
        <ele>654.58</ele>
        <time>2015-07-08T12:50:45Z</time>
      </trkpt>
      <trkpt lat="63.98397" lon="-19.07892">
        <ele>655.49</ele>
        <time>2015-07-08T12:51:00Z</time>
      </trkpt>
      <trkpt lat="63.98397" lon="-19.07906">
        <ele>655.77</ele>
        <time>2015-07-08T12:51:13Z</time>
      </trkpt>
      <trkpt lat="63.984" lon="-19.07916">
        <ele>657.74</ele>
        <time>2015-07-08T12:51:24Z</time>
      </trkpt>
      <trkpt lat="63.98399" lon="-19.07922">
        <ele>660.12</ele>
        <time>2015-07-08T12:51:45Z</time>
      </trkpt>
      <trkpt lat="63.984" lon="-19.07925">
        <ele>660.01</ele>
        <time>2015-07-08T12:52:06Z</time>
      </trkpt>
      <trkpt lat="63.984" lon="-19.07926">
        <ele>659.72</ele>
        <time>2015-07-08T12:52:32Z</time>
      </trkpt>
      <trkpt lat="63.98399" lon="-19.07929">
        <ele>659.77</ele>
        <time>2015-07-08T12:53:01Z</time>
      </trkpt>
      <trkpt lat="63.984" lon="-19.07929">
        <ele>659.88</ele>
        <time>2015-07-08T12:53:42Z</time>
      </trkpt>
      <trkpt lat="63.98401" lon="-19.07928">
        <ele>659.79</ele>
        <time>2015-07-08T12:54:10Z</time>
      </trkpt>
      <trkpt lat="63.984" lon="-19.07929">
        <ele>659.42</ele>
        <time>2015-07-08T12:54:45Z</time>
      </trkpt>
      <trkpt lat="63.98399" lon="-19.07927">
        <ele>659.64</ele>
        <time>2015-07-08T12:55:15Z</time>
      </trkpt>
      <trkpt lat="63.98399" lon="-19.07926">
        <ele>659.56</ele>
        <time>2015-07-08T12:55:49Z</time>
      </trkpt>
      <trkpt lat="63.98399" lon="-19.07933">
        <ele>659.54</ele>
        <time>2015-07-08T12:56:10Z</time>
      </trkpt>
      <trkpt lat="63.98397" lon="-19.07939">
        <ele>657.87</ele>
        <time>2015-07-08T12:56:30Z</time>
      </trkpt>
      <trkpt lat="63.98398" lon="-19.0794">
        <ele>657.76</ele>
        <time>2015-07-08T12:56:35Z</time>
      </trkpt>
      <trkpt lat="63.98398" lon="-19.07941">
        <ele>658.56</ele>
        <time>2015-07-08T12:56:54Z</time>
      </trkpt>
      <trkpt lat="63.98389" lon="-19.07945">
        <ele>657.99</ele>
        <time>2015-07-08T12:57:14Z</time>
      </trkpt>
      <trkpt lat="63.98388" lon="-19.07952">
        <ele>657.49</ele>
        <time>2015-07-08T12:57:28Z</time>
      </trkpt>
      <trkpt lat="63.98384" lon="-19.0796">
        <ele>657.42</ele>
        <time>2015-07-08T12:57:50Z</time>
      </trkpt>
      <trkpt lat="63.98381" lon="-19.07978">
        <ele>657.17</ele>
        <time>2015-07-08T12:58:03Z</time>
      </trkpt>
      <trkpt lat="63.98381" lon="-19.0798">
        <ele>657.17</ele>
        <time>2015-07-08T12:58:04Z</time>
      </trkpt>
      <trkpt lat="63.98374" lon="-19.07994">
        <ele>657.82</ele>
        <time>2015-07-08T12:58:16Z</time>
      </trkpt>
      <trkpt lat="63.98369" lon="-19.08009">
        <ele>658.2</ele>
        <time>2015-07-08T12:58:25Z</time>
      </trkpt>
      <trkpt lat="63.98366" lon="-19.08019">
        <ele>658.76</ele>
        <time>2015-07-08T12:58:37Z</time>
      </trkpt>
      <trkpt lat="63.98366" lon="-19.08019">
        <ele>658.97</ele>
        <time>2015-07-08T12:59:10Z</time>
      </trkpt>
      <trkpt lat="63.98366" lon="-19.0802">
        <ele>659</ele>
        <time>2015-07-08T12:59:39Z</time>
      </trkpt>
      <trkpt lat="63.98365" lon="-19.08021">
        <ele>658.89</ele>
        <time>2015-07-08T13:00:17Z</time>
      </trkpt>
      <trkpt lat="63.98364" lon="-19.08021">
        <ele>659.08</ele>
        <time>2015-07-08T13:00:37Z</time>
      </trkpt>
      <trkpt lat="63.98362" lon="-19.08026">
        <ele>659.59</ele>
        <time>2015-07-08T13:00:40Z</time>
      </trkpt>
      <trkpt lat="63.98353" lon="-19.08058">
        <ele>660.34</ele>
        <time>2015-07-08T13:00:56Z</time>
      </trkpt>
      <trkpt lat="63.98349" lon="-19.08078">
        <ele>660.6</ele>
        <time>2015-07-08T13:01:10Z</time>
      </trkpt>
      <trkpt lat="63.98347" lon="-19.08091">
        <ele>662.46</ele>
        <time>2015-07-08T13:01:22Z</time>
      </trkpt>
      <trkpt lat="63.98347" lon="-19.08094">
        <ele>662.71</ele>
        <time>2015-07-08T13:01:24Z</time>
      </trkpt>
      <trkpt lat="63.98341" lon="-19.08118">
        <ele>664.28</ele>
        <time>2015-07-08T13:01:40Z</time>
      </trkpt>
      <trkpt lat="63.98339" lon="-19.08127">
        <ele>664.24</ele>
        <time>2015-07-08T13:01:45Z</time>
      </trkpt>
      <trkpt lat="63.98336" lon="-19.08147">
        <ele>665.06</ele>
        <time>2015-07-08T13:01:58Z</time>
      </trkpt>
      <trkpt lat="63.98328" lon="-19.08156">
        <ele>666.65</ele>
        <time>2015-07-08T13:02:10Z</time>
      </trkpt>
      <trkpt lat="63.98328" lon="-19.08165">
        <ele>667.69</ele>
        <time>2015-07-08T13:02:16Z</time>
      </trkpt>
      <trkpt lat="63.98329" lon="-19.08169">
        <ele>667.55</ele>
        <time>2015-07-08T13:02:18Z</time>
      </trkpt>
      <trkpt lat="63.98326" lon="-19.08186">
        <ele>667.59</ele>
        <time>2015-07-08T13:02:32Z</time>
      </trkpt>
      <trkpt lat="63.98324" lon="-19.08195">
        <ele>667.73</ele>
        <time>2015-07-08T13:03:00Z</time>
      </trkpt>
      <trkpt lat="63.98322" lon="-19.08198">
        <ele>667.9</ele>
        <time>2015-07-08T13:03:02Z</time>
      </trkpt>
      <trkpt lat="63.9832" lon="-19.08202">
        <ele>668.28</ele>
        <time>2015-07-08T13:03:05Z</time>
      </trkpt>
      <trkpt lat="63.98315" lon="-19.08209">
        <ele>668.91</ele>
        <time>2015-07-08T13:03:16Z</time>
      </trkpt>
      <trkpt lat="63.98314" lon="-19.08213">
        <ele>669.01</ele>
        <time>2015-07-08T13:03:18Z</time>
      </trkpt>
      <trkpt lat="63.98307" lon="-19.08216">
        <ele>669.29</ele>
        <time>2015-07-08T13:03:30Z</time>
      </trkpt>
      <trkpt lat="63.983" lon="-19.08216">
        <ele>669.58</ele>
        <time>2015-07-08T13:03:42Z</time>
      </trkpt>
      <trkpt lat="63.98299" lon="-19.08214">
        <ele>670.3</ele>
        <time>2015-07-08T13:04:11Z</time>
      </trkpt>
      <trkpt lat="63.98304" lon="-19.08215">
        <ele>669.5</ele>
        <time>2015-07-08T13:04:37Z</time>
      </trkpt>
      <trkpt lat="63.98305" lon="-19.08231">
        <ele>668.39</ele>
        <time>2015-07-08T13:04:50Z</time>
      </trkpt>
      <trkpt lat="63.98299" lon="-19.08248">
        <ele>667.84</ele>
        <time>2015-07-08T13:05:05Z</time>
      </trkpt>
      <trkpt lat="63.98297" lon="-19.08272">
        <ele>667.85</ele>
        <time>2015-07-08T13:05:18Z</time>
      </trkpt>
      <trkpt lat="63.98297" lon="-19.0828">
        <ele>667.58</ele>
        <time>2015-07-08T13:05:37Z</time>
      </trkpt>
      <trkpt lat="63.98295" lon="-19.08313">
        <ele>666.61</ele>
        <time>2015-07-08T13:05:53Z</time>
      </trkpt>
      <trkpt lat="63.98292" lon="-19.08343">
        <ele>666.82</ele>
        <time>2015-07-08T13:06:09Z</time>
      </trkpt>
      <trkpt lat="63.98289" lon="-19.08363">
        <ele>668.35</ele>
        <time>2015-07-08T13:06:23Z</time>
      </trkpt>
      <trkpt lat="63.98284" lon="-19.08366">
        <ele>668.96</ele>
        <time>2015-07-08T13:06:36Z</time>
      </trkpt>
      <trkpt lat="63.9828" lon="-19.08373">
        <ele>668.18</ele>
        <time>2015-07-08T13:06:52Z</time>
      </trkpt>
      <trkpt lat="63.98279" lon="-19.08375">
        <ele>668.01</ele>
        <time>2015-07-08T13:07:16Z</time>
      </trkpt>
      <trkpt lat="63.98282" lon="-19.08385">
        <ele>668.55</ele>
        <time>2015-07-08T13:07:40Z</time>
      </trkpt>
      <trkpt lat="63.98277" lon="-19.08406">
        <ele>668.79</ele>
        <time>2015-07-08T13:07:53Z</time>
      </trkpt>
      <trkpt lat="63.98275" lon="-19.08424">
        <ele>669.72</ele>
        <time>2015-07-08T13:08:08Z</time>
      </trkpt>
      <trkpt lat="63.98268" lon="-19.08446">
        <ele>669.74</ele>
        <time>2015-07-08T13:08:23Z</time>
      </trkpt>
      <trkpt lat="63.98264" lon="-19.08457">
        <ele>671.11</ele>
        <time>2015-07-08T13:08:37Z</time>
      </trkpt>
      <trkpt lat="63.98262" lon="-19.08467">
        <ele>671.48</ele>
        <time>2015-07-08T13:08:57Z</time>
      </trkpt>
      <trkpt lat="63.98259" lon="-19.08449">
        <ele>671.55</ele>
        <time>2015-07-08T13:09:15Z</time>
      </trkpt>
      <trkpt lat="63.98254" lon="-19.08433">
        <ele>671.38</ele>
        <time>2015-07-08T13:09:30Z</time>
      </trkpt>
      <trkpt lat="63.98255" lon="-19.08421">
        <ele>670.87</ele>
        <time>2015-07-08T13:09:41Z</time>
      </trkpt>
      <trkpt lat="63.98255" lon="-19.08415">
        <ele>670.75</ele>
        <time>2015-07-08T13:09:44Z</time>
      </trkpt>
      <trkpt lat="63.98253" lon="-19.08398">
        <ele>670.02</ele>
        <time>2015-07-08T13:09:51Z</time>
      </trkpt>
      <trkpt lat="63.98242" lon="-19.08376">
        <ele>668.64</ele>
        <time>2015-07-08T13:10:08Z</time>
      </trkpt>
      <trkpt lat="63.98235" lon="-19.08375">
        <ele>669.18</ele>
        <time>2015-07-08T13:10:21Z</time>
      </trkpt>
      <trkpt lat="63.98234" lon="-19.08375">
        <ele>669.15</ele>
        <time>2015-07-08T13:10:24Z</time>
      </trkpt>
      <trkpt lat="63.98232" lon="-19.08371">
        <ele>668.83</ele>
        <time>2015-07-08T13:10:28Z</time>
      </trkpt>
      <trkpt lat="63.98229" lon="-19.0837">
        <ele>669</ele>
        <time>2015-07-08T13:10:47Z</time>
      </trkpt>
      <trkpt lat="63.98226" lon="-19.08364">
        <ele>668.04</ele>
        <time>2015-07-08T13:11:01Z</time>
      </trkpt>
      <trkpt lat="63.98226" lon="-19.08366">
        <ele>667.99</ele>
        <time>2015-07-08T13:11:25Z</time>
      </trkpt>
      <trkpt lat="63.98226" lon="-19.08369">
        <ele>667.88</ele>
        <time>2015-07-08T13:11:48Z</time>
      </trkpt>
      <trkpt lat="63.98227" lon="-19.08369">
        <ele>668.22</ele>
        <time>2015-07-08T13:12:07Z</time>
      </trkpt>
      <trkpt lat="63.98227" lon="-19.08366">
        <ele>667.76</ele>
        <time>2015-07-08T13:12:28Z</time>
      </trkpt>
      <trkpt lat="63.98227" lon="-19.08368">
        <ele>668.1</ele>
        <time>2015-07-08T13:12:46Z</time>
      </trkpt>
      <trkpt lat="63.98228" lon="-19.08368">
        <ele>667.93</ele>
        <time>2015-07-08T13:13:06Z</time>
      </trkpt>
      <trkpt lat="63.98226" lon="-19.08367">
        <ele>668.65</ele>
        <time>2015-07-08T13:13:21Z</time>
      </trkpt>
      <trkpt lat="63.98226" lon="-19.08369">
        <ele>668.1</ele>
        <time>2015-07-08T13:13:36Z</time>
      </trkpt>
      <trkpt lat="63.98224" lon="-19.08372">
        <ele>668.08</ele>
        <time>2015-07-08T13:13:54Z</time>
      </trkpt>
      <trkpt lat="63.98227" lon="-19.08368">
        <ele>667.99</ele>
        <time>2015-07-08T13:14:08Z</time>
      </trkpt>
      <trkpt lat="63.98228" lon="-19.08368">
        <ele>668.46</ele>
        <time>2015-07-08T13:14:47Z</time>
      </trkpt>
      <trkpt lat="63.98228" lon="-19.08366">
        <ele>668.01</ele>
        <time>2015-07-08T13:15:14Z</time>
      </trkpt>
      <trkpt lat="63.98228" lon="-19.08367">
        <ele>668.07</ele>
        <time>2015-07-08T13:15:36Z</time>
      </trkpt>
      <trkpt lat="63.98228" lon="-19.08367">
        <ele>668.04</ele>
        <time>2015-07-08T13:16:02Z</time>
      </trkpt>
      <trkpt lat="63.98228" lon="-19.08364">
        <ele>668.09</ele>
        <time>2015-07-08T13:16:24Z</time>
      </trkpt>
      <trkpt lat="63.98233" lon="-19.08375">
        <ele>668.44</ele>
        <time>2015-07-08T13:16:37Z</time>
      </trkpt>
      <trkpt lat="63.98238" lon="-19.08368">
        <ele>668.78</ele>
        <time>2015-07-08T13:16:52Z</time>
      </trkpt>
      <trkpt lat="63.98241" lon="-19.08373">
        <ele>668.55</ele>
        <time>2015-07-08T13:17:03Z</time>
      </trkpt>
      <trkpt lat="63.98244" lon="-19.08378">
        <ele>668.61</ele>
        <time>2015-07-08T13:17:07Z</time>
      </trkpt>
      <trkpt lat="63.98254" lon="-19.08404">
        <ele>669.08</ele>
        <time>2015-07-08T13:17:24Z</time>
      </trkpt>
      <trkpt lat="63.98258" lon="-19.08433">
        <ele>670.49</ele>
        <time>2015-07-08T13:17:40Z</time>
      </trkpt>
      <trkpt lat="63.98258" lon="-19.08438">
        <ele>670.5</ele>
        <time>2015-07-08T13:17:43Z</time>
      </trkpt>
      <trkpt lat="63.98258" lon="-19.08444">
        <ele>670.64</ele>
        <time>2015-07-08T13:17:46Z</time>
      </trkpt>
      <trkpt lat="63.98261" lon="-19.08453">
        <ele>670.79</ele>
        <time>2015-07-08T13:17:51Z</time>
      </trkpt>
      <trkpt lat="63.9826" lon="-19.08464">
        <ele>670.96</ele>
        <time>2015-07-08T13:17:56Z</time>
      </trkpt>
      <trkpt lat="63.98251" lon="-19.0849">
        <ele>672.46</ele>
        <time>2015-07-08T13:18:12Z</time>
      </trkpt>
      <trkpt lat="63.98245" lon="-19.08511">
        <ele>673.56</ele>
        <time>2015-07-08T13:18:29Z</time>
      </trkpt>
      <trkpt lat="63.98241" lon="-19.08537">
        <ele>675.6</ele>
        <time>2015-07-08T13:18:44Z</time>
      </trkpt>
      <trkpt lat="63.98239" lon="-19.08548">
        <ele>676.24</ele>
        <time>2015-07-08T13:18:51Z</time>
      </trkpt>
      <trkpt lat="63.98237" lon="-19.08555">
        <ele>676.82</ele>
        <time>2015-07-08T13:18:55Z</time>
      </trkpt>
      <trkpt lat="63.98231" lon="-19.08565">
        <ele>677.66</ele>
        <time>2015-07-08T13:19:04Z</time>
      </trkpt>
      <trkpt lat="63.98229" lon="-19.08574">
        <ele>677.98</ele>
        <time>2015-07-08T13:19:10Z</time>
      </trkpt>
      <trkpt lat="63.98229" lon="-19.08585">
        <ele>679.17</ele>
        <time>2015-07-08T13:19:16Z</time>
      </trkpt>
      <trkpt lat="63.98223" lon="-19.08607">
        <ele>679.92</ele>
        <time>2015-07-08T13:19:29Z</time>
      </trkpt>
      <trkpt lat="63.98214" lon="-19.08637">
        <ele>680.23</ele>
        <time>2015-07-08T13:19:46Z</time>
      </trkpt>
      <trkpt lat="63.98212" lon="-19.08642">
        <ele>679.84</ele>
        <time>2015-07-08T13:19:49Z</time>
      </trkpt>
      <trkpt lat="63.98211" lon="-19.08646">
        <ele>679.72</ele>
        <time>2015-07-08T13:19:51Z</time>
      </trkpt>
      <trkpt lat="63.982" lon="-19.08677">
        <ele>680.15</ele>
        <time>2015-07-08T13:20:06Z</time>
      </trkpt>
      <trkpt lat="63.98192" lon="-19.08699">
        <ele>681.67</ele>
        <time>2015-07-08T13:20:21Z</time>
      </trkpt>
      <trkpt lat="63.98185" lon="-19.08724">
        <ele>683.47</ele>
        <time>2015-07-08T13:20:38Z</time>
      </trkpt>
      <trkpt lat="63.98183" lon="-19.08732">
        <ele>684.21</ele>
        <time>2015-07-08T13:20:44Z</time>
      </trkpt>
      <trkpt lat="63.98179" lon="-19.08758">
        <ele>686.49</ele>
        <time>2015-07-08T13:21:00Z</time>
      </trkpt>
      <trkpt lat="63.98172" lon="-19.08782">
        <ele>689.51</ele>
        <time>2015-07-08T13:21:14Z</time>
      </trkpt>
      <trkpt lat="63.98171" lon="-19.08787">
        <ele>690.07</ele>
        <time>2015-07-08T13:21:17Z</time>
      </trkpt>
      <trkpt lat="63.98171" lon="-19.08794">
        <ele>691.82</ele>
        <time>2015-07-08T13:21:30Z</time>
      </trkpt>
      <trkpt lat="63.9817" lon="-19.08793">
        <ele>691.54</ele>
        <time>2015-07-08T13:21:44Z</time>
      </trkpt>
      <trkpt lat="63.98168" lon="-19.08798">
        <ele>691.52</ele>
        <time>2015-07-08T13:21:47Z</time>
      </trkpt>
      <trkpt lat="63.98163" lon="-19.08817">
        <ele>692.45</ele>
        <time>2015-07-08T13:21:58Z</time>
      </trkpt>
      <trkpt lat="63.98158" lon="-19.08847">
        <ele>695.68</ele>
        <time>2015-07-08T13:22:14Z</time>
      </trkpt>
      <trkpt lat="63.98159" lon="-19.08852">
        <ele>696.42</ele>
        <time>2015-07-08T13:22:17Z</time>
      </trkpt>
      <trkpt lat="63.98165" lon="-19.08863">
        <ele>698.37</ele>
        <time>2015-07-08T13:22:30Z</time>
      </trkpt>
      <trkpt lat="63.98172" lon="-19.08863">
        <ele>698.74</ele>
        <time>2015-07-08T13:22:46Z</time>
      </trkpt>
      <trkpt lat="63.98176" lon="-19.08863">
        <ele>697.93</ele>
        <time>2015-07-08T13:23:05Z</time>
      </trkpt>
      <trkpt lat="63.9817" lon="-19.08865">
        <ele>697.79</ele>
        <time>2015-07-08T13:23:19Z</time>
      </trkpt>
      <trkpt lat="63.98166" lon="-19.08882">
        <ele>699.12</ele>
        <time>2015-07-08T13:23:32Z</time>
      </trkpt>
      <trkpt lat="63.98169" lon="-19.08895">
        <ele>700.96</ele>
        <time>2015-07-08T13:23:40Z</time>
      </trkpt>
      <trkpt lat="63.98168" lon="-19.08915">
        <ele>703.28</ele>
        <time>2015-07-08T13:23:57Z</time>
      </trkpt>
      <trkpt lat="63.98169" lon="-19.08912">
        <ele>702.89</ele>
        <time>2015-07-08T13:24:19Z</time>
      </trkpt>
      <trkpt lat="63.98168" lon="-19.0891">
        <ele>703.06</ele>
        <time>2015-07-08T13:24:41Z</time>
      </trkpt>
      <trkpt lat="63.98168" lon="-19.08908">
        <ele>702.85</ele>
        <time>2015-07-08T13:24:57Z</time>
      </trkpt>
      <trkpt lat="63.98168" lon="-19.08913">
        <ele>703.56</ele>
        <time>2015-07-08T13:25:28Z</time>
      </trkpt>
      <trkpt lat="63.98167" lon="-19.08913">
        <ele>703.71</ele>
        <time>2015-07-08T13:25:48Z</time>
      </trkpt>
      <trkpt lat="63.98164" lon="-19.08917">
        <ele>703.82</ele>
        <time>2015-07-08T13:26:06Z</time>
      </trkpt>
      <trkpt lat="63.98162" lon="-19.08918">
        <ele>703.99</ele>
        <time>2015-07-08T13:26:20Z</time>
      </trkpt>
      <trkpt lat="63.98151" lon="-19.08928">
        <ele>705.2</ele>
        <time>2015-07-08T13:26:34Z</time>
      </trkpt>
      <trkpt lat="63.9815" lon="-19.0893">
        <ele>706.02</ele>
        <time>2015-07-08T13:26:44Z</time>
      </trkpt>
      <trkpt lat="63.98142" lon="-19.08939">
        <ele>707.01</ele>
        <time>2015-07-08T13:26:54Z</time>
      </trkpt>
      <trkpt lat="63.98134" lon="-19.08949">
        <ele>708.98</ele>
        <time>2015-07-08T13:27:05Z</time>
      </trkpt>
      <trkpt lat="63.98122" lon="-19.08958">
        <ele>711.45</ele>
        <time>2015-07-08T13:27:22Z</time>
      </trkpt>
      <trkpt lat="63.98112" lon="-19.08964">
        <ele>712.77</ele>
        <time>2015-07-08T13:27:38Z</time>
      </trkpt>
      <trkpt lat="63.98102" lon="-19.08975">
        <ele>715.25</ele>
        <time>2015-07-08T13:27:51Z</time>
      </trkpt>
      <trkpt lat="63.98094" lon="-19.0898">
        <ele>717.46</ele>
        <time>2015-07-08T13:28:05Z</time>
      </trkpt>
      <trkpt lat="63.98086" lon="-19.0898">
        <ele>720.44</ele>
        <time>2015-07-08T13:28:20Z</time>
      </trkpt>
      <trkpt lat="63.9808" lon="-19.08973">
        <ele>723.46</ele>
        <time>2015-07-08T13:28:35Z</time>
      </trkpt>
      <trkpt lat="63.98076" lon="-19.08962">
        <ele>726.53</ele>
        <time>2015-07-08T13:28:48Z</time>
      </trkpt>
      <trkpt lat="63.98076" lon="-19.08947">
        <ele>729.66</ele>
        <time>2015-07-08T13:28:59Z</time>
      </trkpt>
      <trkpt lat="63.9807" lon="-19.08934">
        <ele>732.79</ele>
        <time>2015-07-08T13:29:15Z</time>
      </trkpt>
      <trkpt lat="63.98063" lon="-19.08938">
        <ele>733.36</ele>
        <time>2015-07-08T13:29:32Z</time>
      </trkpt>
      <trkpt lat="63.9806" lon="-19.08944">
        <ele>736.43</ele>
        <time>2015-07-08T13:29:43Z</time>
      </trkpt>
      <trkpt lat="63.98052" lon="-19.08947">
        <ele>739.29</ele>
        <time>2015-07-08T13:29:56Z</time>
      </trkpt>
      <trkpt lat="63.98046" lon="-19.08951">
        <ele>741.82</ele>
        <time>2015-07-08T13:30:11Z</time>
      </trkpt>
      <trkpt lat="63.98039" lon="-19.08958">
        <ele>743.42</ele>
        <time>2015-07-08T13:30:25Z</time>
      </trkpt>
      <trkpt lat="63.98029" lon="-19.08958">
        <ele>746.29</ele>
        <time>2015-07-08T13:30:41Z</time>
      </trkpt>
      <trkpt lat="63.98024" lon="-19.08962">
        <ele>749.35</ele>
        <time>2015-07-08T13:30:56Z</time>
      </trkpt>
      <trkpt lat="63.98024" lon="-19.08965">
        <ele>750.87</ele>
        <time>2015-07-08T13:31:17Z</time>
      </trkpt>
      <trkpt lat="63.98027" lon="-19.0896">
        <ele>750.95</ele>
        <time>2015-07-08T13:31:34Z</time>
      </trkpt>
      <trkpt lat="63.98023" lon="-19.08965">
        <ele>750.4</ele>
        <time>2015-07-08T13:32:02Z</time>
      </trkpt>
      <trkpt lat="63.98023" lon="-19.08966">
        <ele>750.32</ele>
        <time>2015-07-08T13:32:03Z</time>
      </trkpt>
      <trkpt lat="63.9802" lon="-19.08968">
        <ele>750.59</ele>
        <time>2015-07-08T13:32:05Z</time>
      </trkpt>
      <trkpt lat="63.98016" lon="-19.08975">
        <ele>751.76</ele>
        <time>2015-07-08T13:32:20Z</time>
      </trkpt>
      <trkpt lat="63.98009" lon="-19.08987">
        <ele>753.37</ele>
        <time>2015-07-08T13:32:46Z</time>
      </trkpt>
      <trkpt lat="63.9801" lon="-19.08989">
        <ele>754.43</ele>
        <time>2015-07-08T13:33:28Z</time>
      </trkpt>
      <trkpt lat="63.98008" lon="-19.08988">
        <ele>754.67</ele>
        <time>2015-07-08T13:33:43Z</time>
      </trkpt>
      <trkpt lat="63.98008" lon="-19.08988">
        <ele>754.34</ele>
        <time>2015-07-08T13:33:59Z</time>
      </trkpt>
      <trkpt lat="63.98009" lon="-19.08989">
        <ele>754.28</ele>
        <time>2015-07-08T13:34:11Z</time>
      </trkpt>
      <trkpt lat="63.98021" lon="-19.08988">
        <ele>755.47</ele>
        <time>2015-07-08T13:34:25Z</time>
      </trkpt>
      <trkpt lat="63.98022" lon="-19.08988">
        <ele>755.59</ele>
        <time>2015-07-08T13:34:26Z</time>
      </trkpt>
      <trkpt lat="63.98028" lon="-19.08986">
        <ele>756.77</ele>
        <time>2015-07-08T13:34:33Z</time>
      </trkpt>
      <trkpt lat="63.9803" lon="-19.0899">
        <ele>757.31</ele>
        <time>2015-07-08T13:34:37Z</time>
      </trkpt>
      <trkpt lat="63.98041" lon="-19.09007">
        <ele>758.77</ele>
        <time>2015-07-08T13:34:52Z</time>
      </trkpt>
      <trkpt lat="63.98041" lon="-19.09016">
        <ele>759</ele>
        <time>2015-07-08T13:35:01Z</time>
      </trkpt>
      <trkpt lat="63.98041" lon="-19.09047">
        <ele>758.84</ele>
        <time>2015-07-08T13:35:16Z</time>
      </trkpt>
      <trkpt lat="63.98038" lon="-19.09072">
        <ele>760.3</ele>
        <time>2015-07-08T13:35:31Z</time>
      </trkpt>
      <trkpt lat="63.98037" lon="-19.09077">
        <ele>760.46</ele>
        <time>2015-07-08T13:35:54Z</time>
      </trkpt>
      <trkpt lat="63.98036" lon="-19.09079">
        <ele>760.46</ele>
        <time>2015-07-08T13:35:56Z</time>
      </trkpt>
      <trkpt lat="63.98034" lon="-19.09088">
        <ele>760.21</ele>
        <time>2015-07-08T13:36:00Z</time>
      </trkpt>
      <trkpt lat="63.98033" lon="-19.09093">
        <ele>760.19</ele>
        <time>2015-07-08T13:36:02Z</time>
      </trkpt>
      <trkpt lat="63.98034" lon="-19.09113">
        <ele>760.75</ele>
        <time>2015-07-08T13:36:12Z</time>
      </trkpt>
      <trkpt lat="63.98035" lon="-19.09124">
        <ele>761.91</ele>
        <time>2015-07-08T13:36:18Z</time>
      </trkpt>
      <trkpt lat="63.98032" lon="-19.09156">
        <ele>765.23</ele>
        <time>2015-07-08T13:36:36Z</time>
      </trkpt>
      <trkpt lat="63.98031" lon="-19.09161">
        <ele>765.58</ele>
        <time>2015-07-08T13:36:39Z</time>
      </trkpt>
      <trkpt lat="63.98031" lon="-19.09182">
        <ele>766.86</ele>
        <time>2015-07-08T13:36:50Z</time>
      </trkpt>
      <trkpt lat="63.9803" lon="-19.09187">
        <ele>767.33</ele>
        <time>2015-07-08T13:36:52Z</time>
      </trkpt>
      <trkpt lat="63.98027" lon="-19.09198">
        <ele>768.5</ele>
        <time>2015-07-08T13:37:01Z</time>
      </trkpt>
      <trkpt lat="63.98025" lon="-19.09203">
        <ele>768.81</ele>
        <time>2015-07-08T13:37:05Z</time>
      </trkpt>
      <trkpt lat="63.98017" lon="-19.09226">
        <ele>770.47</ele>
        <time>2015-07-08T13:37:20Z</time>
      </trkpt>
      <trkpt lat="63.98016" lon="-19.0923">
        <ele>770.88</ele>
        <time>2015-07-08T13:37:23Z</time>
      </trkpt>
      <trkpt lat="63.98008" lon="-19.09245">
        <ele>772.32</ele>
        <time>2015-07-08T13:37:36Z</time>
      </trkpt>
      <trkpt lat="63.98004" lon="-19.09262">
        <ele>774.41</ele>
        <time>2015-07-08T13:37:53Z</time>
      </trkpt>
      <trkpt lat="63.97998" lon="-19.09279">
        <ele>776.82</ele>
        <time>2015-07-08T13:38:10Z</time>
      </trkpt>
      <trkpt lat="63.97992" lon="-19.09296">
        <ele>779.96</ele>
        <time>2015-07-08T13:38:28Z</time>
      </trkpt>
      <trkpt lat="63.97984" lon="-19.09314">
        <ele>783.05</ele>
        <time>2015-07-08T13:38:46Z</time>
      </trkpt>
      <trkpt lat="63.97978" lon="-19.09332">
        <ele>785.25</ele>
        <time>2015-07-08T13:39:03Z</time>
      </trkpt>
      <trkpt lat="63.97974" lon="-19.09346">
        <ele>787.79</ele>
        <time>2015-07-08T13:39:18Z</time>
      </trkpt>
      <trkpt lat="63.97969" lon="-19.09361">
        <ele>790.69</ele>
        <time>2015-07-08T13:39:34Z</time>
      </trkpt>
      <trkpt lat="63.97965" lon="-19.09372">
        <ele>793.75</ele>
        <time>2015-07-08T13:39:50Z</time>
      </trkpt>
      <trkpt lat="63.9796" lon="-19.09382">
        <ele>796.79</ele>
        <time>2015-07-08T13:40:06Z</time>
      </trkpt>
      <trkpt lat="63.97956" lon="-19.09389">
        <ele>799.74</ele>
        <time>2015-07-08T13:40:25Z</time>
      </trkpt>
      <trkpt lat="63.97954" lon="-19.09395">
        <ele>802.82</ele>
        <time>2015-07-08T13:40:43Z</time>
      </trkpt>
      <trkpt lat="63.9795" lon="-19.09409">
        <ele>806.02</ele>
        <time>2015-07-08T13:40:59Z</time>
      </trkpt>
      <trkpt lat="63.97954" lon="-19.09413">
        <ele>806.79</ele>
        <time>2015-07-08T13:41:24Z</time>
      </trkpt>
      <trkpt lat="63.97952" lon="-19.09427">
        <ele>809.56</ele>
        <time>2015-07-08T13:41:40Z</time>
      </trkpt>
      <trkpt lat="63.97944" lon="-19.09445">
        <ele>812.42</ele>
        <time>2015-07-08T13:41:56Z</time>
      </trkpt>
      <trkpt lat="63.97936" lon="-19.09462">
        <ele>813.98</ele>
        <time>2015-07-08T13:42:09Z</time>
      </trkpt>
      <trkpt lat="63.97932" lon="-19.09462">
        <ele>813.89</ele>
        <time>2015-07-08T13:42:23Z</time>
      </trkpt>
      <trkpt lat="63.97935" lon="-19.0946">
        <ele>814.28</ele>
        <time>2015-07-08T13:42:45Z</time>
      </trkpt>
      <trkpt lat="63.97932" lon="-19.09459">
        <ele>814.15</ele>
        <time>2015-07-08T13:43:02Z</time>
      </trkpt>
      <trkpt lat="63.97928" lon="-19.09457">
        <ele>816.34</ele>
        <time>2015-07-08T13:43:18Z</time>
      </trkpt>
      <trkpt lat="63.9793" lon="-19.09457">
        <ele>815.73</ele>
        <time>2015-07-08T13:43:49Z</time>
      </trkpt>
      <trkpt lat="63.97934" lon="-19.0946">
        <ele>815.26</ele>
        <time>2015-07-08T13:44:05Z</time>
      </trkpt>
      <trkpt lat="63.97934" lon="-19.09458">
        <ele>814.24</ele>
        <time>2015-07-08T13:44:28Z</time>
      </trkpt>
      <trkpt lat="63.97935" lon="-19.09465">
        <ele>814.62</ele>
        <time>2015-07-08T13:44:38Z</time>
      </trkpt>
      <trkpt lat="63.97933" lon="-19.09471">
        <ele>814.77</ele>
        <time>2015-07-08T13:44:41Z</time>
      </trkpt>
      <trkpt lat="63.97922" lon="-19.09524">
        <ele>813.85</ele>
        <time>2015-07-08T13:45:04Z</time>
      </trkpt>
      <trkpt lat="63.9792" lon="-19.09539">
        <ele>814.47</ele>
        <time>2015-07-08T13:45:12Z</time>
      </trkpt>
      <trkpt lat="63.97919" lon="-19.09552">
        <ele>814.75</ele>
        <time>2015-07-08T13:45:17Z</time>
      </trkpt>
      <trkpt lat="63.97914" lon="-19.09593">
        <ele>814.2</ele>
        <time>2015-07-08T13:45:36Z</time>
      </trkpt>
      <trkpt lat="63.97912" lon="-19.09622">
        <ele>814.67</ele>
        <time>2015-07-08T13:45:54Z</time>
      </trkpt>
      <trkpt lat="63.9791" lon="-19.09629">
        <ele>815.11</ele>
        <time>2015-07-08T13:46:07Z</time>
      </trkpt>
      <trkpt lat="63.97902" lon="-19.09648">
        <ele>813.91</ele>
        <time>2015-07-08T13:46:21Z</time>
      </trkpt>
      <trkpt lat="63.97892" lon="-19.09684">
        <ele>811.91</ele>
        <time>2015-07-08T13:46:39Z</time>
      </trkpt>
      <trkpt lat="63.97889" lon="-19.09694">
        <ele>811.63</ele>
        <time>2015-07-08T13:46:45Z</time>
      </trkpt>
      <trkpt lat="63.97885" lon="-19.09702">
        <ele>811.08</ele>
        <time>2015-07-08T13:46:50Z</time>
      </trkpt>
      <trkpt lat="63.9787" lon="-19.09731">
        <ele>810.4</ele>
        <time>2015-07-08T13:47:09Z</time>
      </trkpt>
      <trkpt lat="63.97857" lon="-19.09757">
        <ele>809.93</ele>
        <time>2015-07-08T13:47:26Z</time>
      </trkpt>
      <trkpt lat="63.97856" lon="-19.09758">
        <ele>809.86</ele>
        <time>2015-07-08T13:47:27Z</time>
      </trkpt>
      <trkpt lat="63.97845" lon="-19.09782">
        <ele>810.66</ele>
        <time>2015-07-08T13:47:45Z</time>
      </trkpt>
      <trkpt lat="63.97846" lon="-19.09783">
        <ele>811.07</ele>
        <time>2015-07-08T13:48:04Z</time>
      </trkpt>
      <trkpt lat="63.97856" lon="-19.09787">
        <ele>812.31</ele>
        <time>2015-07-08T13:48:19Z</time>
      </trkpt>
      <trkpt lat="63.97864" lon="-19.09785">
        <ele>813.81</ele>
        <time>2015-07-08T13:48:30Z</time>
      </trkpt>
      <trkpt lat="63.97877" lon="-19.09793">
        <ele>817.12</ele>
        <time>2015-07-08T13:48:45Z</time>
      </trkpt>
      <trkpt lat="63.97882" lon="-19.09796">
        <ele>817.94</ele>
        <time>2015-07-08T13:48:50Z</time>
      </trkpt>
      <trkpt lat="63.97885" lon="-19.098">
        <ele>818.1</ele>
        <time>2015-07-08T13:48:54Z</time>
      </trkpt>
      <trkpt lat="63.97902" lon="-19.09816">
        <ele>821.11</ele>
        <time>2015-07-08T13:49:12Z</time>
      </trkpt>
      <trkpt lat="63.97913" lon="-19.09809">
        <ele>823.24</ele>
        <time>2015-07-08T13:49:24Z</time>
      </trkpt>
      <trkpt lat="63.97919" lon="-19.09781">
        <ele>823.55</ele>
        <time>2015-07-08T13:49:42Z</time>
      </trkpt>
      <trkpt lat="63.97918" lon="-19.09769">
        <ele>824.28</ele>
        <time>2015-07-08T13:49:48Z</time>
      </trkpt>
      <trkpt lat="63.9792" lon="-19.09725">
        <ele>824.19</ele>
        <time>2015-07-08T13:50:07Z</time>
      </trkpt>
      <trkpt lat="63.97929" lon="-19.09716">
        <ele>826.07</ele>
        <time>2015-07-08T13:50:21Z</time>
      </trkpt>
      <trkpt lat="63.97937" lon="-19.09708">
        <ele>829.15</ele>
        <time>2015-07-08T13:50:34Z</time>
      </trkpt>
      <trkpt lat="63.97946" lon="-19.09698">
        <ele>832.31</ele>
        <time>2015-07-08T13:50:47Z</time>
      </trkpt>
      <trkpt lat="63.97953" lon="-19.09673">
        <ele>835.44</ele>
        <time>2015-07-08T13:51:04Z</time>
      </trkpt>
      <trkpt lat="63.97962" lon="-19.09654">
        <ele>838.52</ele>
        <time>2015-07-08T13:51:22Z</time>
      </trkpt>
      <trkpt lat="63.97972" lon="-19.09635">
        <ele>841.54</ele>
        <time>2015-07-08T13:51:39Z</time>
      </trkpt>
      <trkpt lat="63.97979" lon="-19.09611">
        <ele>844.59</ele>
        <time>2015-07-08T13:51:55Z</time>
      </trkpt>
      <trkpt lat="63.97984" lon="-19.09587">
        <ele>846.64</ele>
        <time>2015-07-08T13:52:12Z</time>
      </trkpt>
      <trkpt lat="63.97991" lon="-19.09574">
        <ele>849.22</ele>
        <time>2015-07-08T13:52:31Z</time>
      </trkpt>
      <trkpt lat="63.97991" lon="-19.09565">
        <ele>849.09</ele>
        <time>2015-07-08T13:52:52Z</time>
      </trkpt>
      <trkpt lat="63.97992" lon="-19.09562">
        <ele>848.77</ele>
        <time>2015-07-08T13:53:12Z</time>
      </trkpt>
      <trkpt lat="63.97993" lon="-19.09563">
        <ele>848.85</ele>
        <time>2015-07-08T13:53:32Z</time>
      </trkpt>
      <trkpt lat="63.97992" lon="-19.09565">
        <ele>848.6</ele>
        <time>2015-07-08T13:53:54Z</time>
      </trkpt>
      <trkpt lat="63.97995" lon="-19.09572">
        <ele>848.43</ele>
        <time>2015-07-08T13:54:01Z</time>
      </trkpt>
      <trkpt lat="63.97998" lon="-19.09577">
        <ele>848.66</ele>
        <time>2015-07-08T13:54:05Z</time>
      </trkpt>
      <trkpt lat="63.98003" lon="-19.09575">
        <ele>849.7</ele>
        <time>2015-07-08T13:54:11Z</time>
      </trkpt>
      <trkpt lat="63.98005" lon="-19.09572">
        <ele>850.19</ele>
        <time>2015-07-08T13:54:13Z</time>
      </trkpt>
      <trkpt lat="63.98011" lon="-19.09578">
        <ele>851.92</ele>
        <time>2015-07-08T13:54:21Z</time>
      </trkpt>
      <trkpt lat="63.98023" lon="-19.09586">
        <ele>855.26</ele>
        <time>2015-07-08T13:54:36Z</time>
      </trkpt>
      <trkpt lat="63.9803" lon="-19.09584">
        <ele>858.34</ele>
        <time>2015-07-08T13:54:48Z</time>
      </trkpt>
      <trkpt lat="63.98039" lon="-19.09575">
        <ele>861.49</ele>
        <time>2015-07-08T13:55:03Z</time>
      </trkpt>
      <trkpt lat="63.98051" lon="-19.09562">
        <ele>864.04</ele>
        <time>2015-07-08T13:55:20Z</time>
      </trkpt>
      <trkpt lat="63.98058" lon="-19.09565">
        <ele>867.09</ele>
        <time>2015-07-08T13:55:34Z</time>
      </trkpt>
      <trkpt lat="63.98065" lon="-19.09563">
        <ele>870.19</ele>
        <time>2015-07-08T13:55:50Z</time>
      </trkpt>
      <trkpt lat="63.98072" lon="-19.0956">
        <ele>873.23</ele>
        <time>2015-07-08T13:56:05Z</time>
      </trkpt>
      <trkpt lat="63.9808" lon="-19.09566">
        <ele>874.98</ele>
        <time>2015-07-08T13:56:24Z</time>
      </trkpt>
      <trkpt lat="63.98093" lon="-19.09564">
        <ele>878.09</ele>
        <time>2015-07-08T13:56:39Z</time>
      </trkpt>
      <trkpt lat="63.98091" lon="-19.09559">
        <ele>879.24</ele>
        <time>2015-07-08T13:56:54Z</time>
      </trkpt>
      <trkpt lat="63.98091" lon="-19.09558">
        <ele>879.54</ele>
        <time>2015-07-08T13:57:15Z</time>
      </trkpt>
      <trkpt lat="63.98092" lon="-19.09556">
        <ele>879.69</ele>
        <time>2015-07-08T13:57:40Z</time>
      </trkpt>
      <trkpt lat="63.98094" lon="-19.09541">
        <ele>878.91</ele>
        <time>2015-07-08T13:57:49Z</time>
      </trkpt>
      <trkpt lat="63.98098" lon="-19.09526">
        <ele>876.7</ele>
        <time>2015-07-08T13:58:03Z</time>
      </trkpt>
      <trkpt lat="63.98099" lon="-19.09524">
        <ele>876.94</ele>
        <time>2015-07-08T13:58:37Z</time>
      </trkpt>
      <trkpt lat="63.98099" lon="-19.09525">
        <ele>876.62</ele>
        <time>2015-07-08T13:59:17Z</time>
      </trkpt>
      <trkpt lat="63.98098" lon="-19.09529">
        <ele>876.45</ele>
        <time>2015-07-08T13:59:23Z</time>
      </trkpt>
      <trkpt lat="63.98097" lon="-19.09536">
        <ele>876.38</ele>
        <time>2015-07-08T13:59:27Z</time>
      </trkpt>
      <trkpt lat="63.98095" lon="-19.09544">
        <ele>876.66</ele>
        <time>2015-07-08T13:59:31Z</time>
      </trkpt>
      <trkpt lat="63.98095" lon="-19.09552">
        <ele>877.99</ele>
        <time>2015-07-08T13:59:50Z</time>
      </trkpt>
      <trkpt lat="63.98094" lon="-19.09555">
        <ele>879.1</ele>
        <time>2015-07-08T14:00:12Z</time>
      </trkpt>
      <trkpt lat="63.98092" lon="-19.09554">
        <ele>879.05</ele>
        <time>2015-07-08T14:00:33Z</time>
      </trkpt>
      <trkpt lat="63.98094" lon="-19.09556">
        <ele>879.59</ele>
        <time>2015-07-08T14:00:55Z</time>
      </trkpt>
      <trkpt lat="63.98093" lon="-19.09558">
        <ele>879.99</ele>
        <time>2015-07-08T14:01:15Z</time>
      </trkpt>
      <trkpt lat="63.98093" lon="-19.09558">
        <ele>881.02</ele>
        <time>2015-07-08T14:01:39Z</time>
      </trkpt>
      <trkpt lat="63.98091" lon="-19.09558">
        <ele>879.89</ele>
        <time>2015-07-08T14:02:02Z</time>
      </trkpt>
      <trkpt lat="63.9809" lon="-19.096">
        <ele>878.09</ele>
        <time>2015-07-08T14:02:20Z</time>
      </trkpt>
      <trkpt lat="63.98091" lon="-19.09604">
        <ele>877.58</ele>
        <time>2015-07-08T14:02:24Z</time>
      </trkpt>
      <trkpt lat="63.98091" lon="-19.09618">
        <ele>876.99</ele>
        <time>2015-07-08T14:02:29Z</time>
      </trkpt>
      <trkpt lat="63.98091" lon="-19.0963">
        <ele>876.6</ele>
        <time>2015-07-08T14:02:33Z</time>
      </trkpt>
      <trkpt lat="63.98092" lon="-19.09673">
        <ele>873.41</ele>
        <time>2015-07-08T14:02:47Z</time>
      </trkpt>
      <trkpt lat="63.98095" lon="-19.09714">
        <ele>870.74</ele>
        <time>2015-07-08T14:03:00Z</time>
      </trkpt>
      <trkpt lat="63.98096" lon="-19.09758">
        <ele>867.65</ele>
        <time>2015-07-08T14:03:15Z</time>
      </trkpt>
      <trkpt lat="63.98097" lon="-19.09773">
        <ele>866.27</ele>
        <time>2015-07-08T14:03:20Z</time>
      </trkpt>
      <trkpt lat="63.981" lon="-19.09811">
        <ele>863.79</ele>
        <time>2015-07-08T14:03:32Z</time>
      </trkpt>
      <trkpt lat="63.981" lon="-19.09814">
        <ele>863.54</ele>
        <time>2015-07-08T14:03:33Z</time>
      </trkpt>
      <trkpt lat="63.98105" lon="-19.09853">
        <ele>860.3</ele>
        <time>2015-07-08T14:03:45Z</time>
      </trkpt>
      <trkpt lat="63.98108" lon="-19.09862">
        <ele>857.29</ele>
        <time>2015-07-08T14:03:52Z</time>
      </trkpt>
      <trkpt lat="63.98111" lon="-19.09867">
        <ele>855.91</ele>
        <time>2015-07-08T14:03:56Z</time>
      </trkpt>
      <trkpt lat="63.98118" lon="-19.09882">
        <ele>852.51</ele>
        <time>2015-07-08T14:04:04Z</time>
      </trkpt>
      <trkpt lat="63.98119" lon="-19.09883">
        <ele>849.8</ele>
        <time>2015-07-08T14:04:10Z</time>
      </trkpt>
      <trkpt lat="63.98122" lon="-19.0989">
        <ele>848.77</ele>
        <time>2015-07-08T14:04:14Z</time>
      </trkpt>
      <trkpt lat="63.98126" lon="-19.099">
        <ele>847.32</ele>
        <time>2015-07-08T14:04:20Z</time>
      </trkpt>
      <trkpt lat="63.98128" lon="-19.09903">
        <ele>844.04</ele>
        <time>2015-07-08T14:04:34Z</time>
      </trkpt>
      <trkpt lat="63.98128" lon="-19.09904">
        <ele>843.54</ele>
        <time>2015-07-08T14:04:50Z</time>
      </trkpt>
      <trkpt lat="63.98135" lon="-19.09915">
        <ele>842.71</ele>
        <time>2015-07-08T14:04:57Z</time>
      </trkpt>
      <trkpt lat="63.98143" lon="-19.09927">
        <ele>839.37</ele>
        <time>2015-07-08T14:05:06Z</time>
      </trkpt>
      <trkpt lat="63.98147" lon="-19.09933">
        <ele>837.22</ele>
        <time>2015-07-08T14:05:11Z</time>
      </trkpt>
      <trkpt lat="63.98154" lon="-19.09942">
        <ele>834.12</ele>
        <time>2015-07-08T14:05:17Z</time>
      </trkpt>
      <trkpt lat="63.98162" lon="-19.09953">
        <ele>830.94</ele>
        <time>2015-07-08T14:05:23Z</time>
      </trkpt>
      <trkpt lat="63.98168" lon="-19.09962">
        <ele>827.57</ele>
        <time>2015-07-08T14:05:28Z</time>
      </trkpt>
      <trkpt lat="63.98173" lon="-19.09969">
        <ele>824.32</ele>
        <time>2015-07-08T14:05:33Z</time>
      </trkpt>
      <trkpt lat="63.98178" lon="-19.0998">
        <ele>821.22</ele>
        <time>2015-07-08T14:05:39Z</time>
      </trkpt>
      <trkpt lat="63.9818" lon="-19.09983">
        <ele>820.59</ele>
        <time>2015-07-08T14:05:41Z</time>
      </trkpt>
      <trkpt lat="63.98188" lon="-19.09991">
        <ele>817.39</ele>
        <time>2015-07-08T14:05:49Z</time>
      </trkpt>
      <trkpt lat="63.98191" lon="-19.09994">
        <ele>814.33</ele>
        <time>2015-07-08T14:06:02Z</time>
      </trkpt>
      <trkpt lat="63.98192" lon="-19.09995">
        <ele>814.18</ele>
        <time>2015-07-08T14:06:03Z</time>
      </trkpt>
      <trkpt lat="63.98194" lon="-19.09998">
        <ele>813.86</ele>
        <time>2015-07-08T14:06:05Z</time>
      </trkpt>
      <trkpt lat="63.9821" lon="-19.10022">
        <ele>810.67</ele>
        <time>2015-07-08T14:06:18Z</time>
      </trkpt>
      <trkpt lat="63.98216" lon="-19.10041">
        <ele>808.31</ele>
        <time>2015-07-08T14:06:27Z</time>
      </trkpt>
      <trkpt lat="63.98218" lon="-19.1005">
        <ele>804.76</ele>
        <time>2015-07-08T14:06:35Z</time>
      </trkpt>
      <trkpt lat="63.98218" lon="-19.10051">
        <ele>804.4</ele>
        <time>2015-07-08T14:06:36Z</time>
      </trkpt>
      <trkpt lat="63.98223" lon="-19.10057">
        <ele>802.35</ele>
        <time>2015-07-08T14:06:42Z</time>
      </trkpt>
      <trkpt lat="63.98225" lon="-19.10067">
        <ele>799.5</ele>
        <time>2015-07-08T14:06:56Z</time>
      </trkpt>
      <trkpt lat="63.98225" lon="-19.10063">
        <ele>799.69</ele>
        <time>2015-07-08T14:07:15Z</time>
      </trkpt>
      <trkpt lat="63.98228" lon="-19.10065">
        <ele>799.14</ele>
        <time>2015-07-08T14:07:19Z</time>
      </trkpt>
      <trkpt lat="63.98238" lon="-19.1007">
        <ele>798.3</ele>
        <time>2015-07-08T14:07:26Z</time>
      </trkpt>
      <trkpt lat="63.98257" lon="-19.10072">
        <ele>794.94</ele>
        <time>2015-07-08T14:07:40Z</time>
      </trkpt>
      <trkpt lat="63.9827" lon="-19.10078">
        <ele>791.59</ele>
        <time>2015-07-08T14:07:50Z</time>
      </trkpt>
      <trkpt lat="63.9828" lon="-19.10085">
        <ele>788.36</ele>
        <time>2015-07-08T14:07:59Z</time>
      </trkpt>
      <trkpt lat="63.98299" lon="-19.10097">
        <ele>785.36</ele>
        <time>2015-07-08T14:08:13Z</time>
      </trkpt>
      <trkpt lat="63.98318" lon="-19.10113">
        <ele>782.19</ele>
        <time>2015-07-08T14:08:28Z</time>
      </trkpt>
      <trkpt lat="63.9834" lon="-19.10125">
        <ele>780.9</ele>
        <time>2015-07-08T14:08:42Z</time>
      </trkpt>
      <trkpt lat="63.98356" lon="-19.10132">
        <ele>781.97</ele>
        <time>2015-07-08T14:08:54Z</time>
      </trkpt>
      <trkpt lat="63.98369" lon="-19.10131">
        <ele>782.74</ele>
        <time>2015-07-08T14:09:07Z</time>
      </trkpt>
      <trkpt lat="63.98371" lon="-19.10129">
        <ele>782.88</ele>
        <time>2015-07-08T14:09:09Z</time>
      </trkpt>
      <trkpt lat="63.98373" lon="-19.10126">
        <ele>782.98</ele>
        <time>2015-07-08T14:09:11Z</time>
      </trkpt>
      <trkpt lat="63.98386" lon="-19.10114">
        <ele>783.33</ele>
        <time>2015-07-08T14:09:20Z</time>
      </trkpt>
      <trkpt lat="63.98403" lon="-19.10115">
        <ele>783.8</ele>
        <time>2015-07-08T14:09:32Z</time>
      </trkpt>
      <trkpt lat="63.98411" lon="-19.10125">
        <ele>784.59</ele>
        <time>2015-07-08T14:09:39Z</time>
      </trkpt>
      <trkpt lat="63.98417" lon="-19.10133">
        <ele>785.36</ele>
        <time>2015-07-08T14:09:45Z</time>
      </trkpt>
      <trkpt lat="63.98423" lon="-19.10127">
        <ele>785.61</ele>
        <time>2015-07-08T14:09:51Z</time>
      </trkpt>
      <trkpt lat="63.98433" lon="-19.10113">
        <ele>785.39</ele>
        <time>2015-07-08T14:10:00Z</time>
      </trkpt>
      <trkpt lat="63.98453" lon="-19.10104">
        <ele>785.79</ele>
        <time>2015-07-08T14:10:15Z</time>
      </trkpt>
      <trkpt lat="63.98455" lon="-19.10103">
        <ele>785.87</ele>
        <time>2015-07-08T14:10:24Z</time>
      </trkpt>
      <trkpt lat="63.98462" lon="-19.10096">
        <ele>785.75</ele>
        <time>2015-07-08T14:10:31Z</time>
      </trkpt>
      <trkpt lat="63.98481" lon="-19.10097">
        <ele>785.74</ele>
        <time>2015-07-08T14:10:44Z</time>
      </trkpt>
      <trkpt lat="63.9849" lon="-19.10096">
        <ele>785.91</ele>
        <time>2015-07-08T14:10:52Z</time>
      </trkpt>
      <trkpt lat="63.98496" lon="-19.10097">
        <ele>785.83</ele>
        <time>2015-07-08T14:10:56Z</time>
      </trkpt>
      <trkpt lat="63.98516" lon="-19.101">
        <ele>785.66</ele>
        <time>2015-07-08T14:11:10Z</time>
      </trkpt>
      <trkpt lat="63.98527" lon="-19.10099">
        <ele>785.72</ele>
        <time>2015-07-08T14:11:19Z</time>
      </trkpt>
      <trkpt lat="63.98544" lon="-19.10103">
        <ele>784.12</ele>
        <time>2015-07-08T14:11:32Z</time>
      </trkpt>
      <trkpt lat="63.98562" lon="-19.10109">
        <ele>782.94</ele>
        <time>2015-07-08T14:11:44Z</time>
      </trkpt>
      <trkpt lat="63.98578" lon="-19.10115">
        <ele>780.71</ele>
        <time>2015-07-08T14:11:57Z</time>
      </trkpt>
      <trkpt lat="63.98584" lon="-19.10114">
        <ele>779.7</ele>
        <time>2015-07-08T14:12:05Z</time>
      </trkpt>
      <trkpt lat="63.98589" lon="-19.10116">
        <ele>779.45</ele>
        <time>2015-07-08T14:12:09Z</time>
      </trkpt>
      <trkpt lat="63.98601" lon="-19.10124">
        <ele>778.31</ele>
        <time>2015-07-08T14:12:20Z</time>
      </trkpt>
      <trkpt lat="63.98616" lon="-19.1013">
        <ele>777.06</ele>
        <time>2015-07-08T14:12:32Z</time>
      </trkpt>
      <trkpt lat="63.98625" lon="-19.10139">
        <ele>776.78</ele>
        <time>2015-07-08T14:12:42Z</time>
      </trkpt>
      <trkpt lat="63.98628" lon="-19.10153">
        <ele>775.85</ele>
        <time>2015-07-08T14:12:48Z</time>
      </trkpt>
      <trkpt lat="63.98636" lon="-19.10187">
        <ele>772.52</ele>
        <time>2015-07-08T14:13:01Z</time>
      </trkpt>
      <trkpt lat="63.98642" lon="-19.10206">
        <ele>769.28</ele>
        <time>2015-07-08T14:13:11Z</time>
      </trkpt>
      <trkpt lat="63.98643" lon="-19.10222">
        <ele>767.3</ele>
        <time>2015-07-08T14:13:17Z</time>
      </trkpt>
      <trkpt lat="63.98648" lon="-19.1024">
        <ele>766.5</ele>
        <time>2015-07-08T14:13:23Z</time>
      </trkpt>
      <trkpt lat="63.98663" lon="-19.10249">
        <ele>763.15</ele>
        <time>2015-07-08T14:13:36Z</time>
      </trkpt>
      <trkpt lat="63.98678" lon="-19.10257">
        <ele>760.05</ele>
        <time>2015-07-08T14:13:45Z</time>
      </trkpt>
      <trkpt lat="63.98684" lon="-19.10263">
        <ele>756.63</ele>
        <time>2015-07-08T14:13:59Z</time>
      </trkpt>
      <trkpt lat="63.98685" lon="-19.10262">
        <ele>755.67</ele>
        <time>2015-07-08T14:14:24Z</time>
      </trkpt>
      <trkpt lat="63.98686" lon="-19.10262">
        <ele>754.31</ele>
        <time>2015-07-08T14:14:37Z</time>
      </trkpt>
      <trkpt lat="63.98687" lon="-19.10263">
        <ele>755.43</ele>
        <time>2015-07-08T14:14:48Z</time>
      </trkpt>
      <trkpt lat="63.9869" lon="-19.10262">
        <ele>755.4</ele>
        <time>2015-07-08T14:14:51Z</time>
      </trkpt>
      <trkpt lat="63.98695" lon="-19.10261">
        <ele>754.67</ele>
        <time>2015-07-08T14:14:56Z</time>
      </trkpt>
      <trkpt lat="63.98704" lon="-19.10247">
        <ele>751.24</ele>
        <time>2015-07-08T14:15:05Z</time>
      </trkpt>
      <trkpt lat="63.98706" lon="-19.10246">
        <ele>750.93</ele>
        <time>2015-07-08T14:15:06Z</time>
      </trkpt>
      <trkpt lat="63.98715" lon="-19.10248">
        <ele>749.32</ele>
        <time>2015-07-08T14:15:14Z</time>
      </trkpt>
      <trkpt lat="63.98729" lon="-19.10279">
        <ele>746.85</ele>
        <time>2015-07-08T14:15:29Z</time>
      </trkpt>
      <trkpt lat="63.98741" lon="-19.10294">
        <ele>745.16</ele>
        <time>2015-07-08T14:15:42Z</time>
      </trkpt>
      <trkpt lat="63.98751" lon="-19.10319">
        <ele>741.94</ele>
        <time>2015-07-08T14:15:55Z</time>
      </trkpt>
      <trkpt lat="63.98754" lon="-19.10325">
        <ele>741.29</ele>
        <time>2015-07-08T14:15:58Z</time>
      </trkpt>
      <trkpt lat="63.98759" lon="-19.10324">
        <ele>738.01</ele>
        <time>2015-07-08T14:16:06Z</time>
      </trkpt>
      <trkpt lat="63.9876" lon="-19.10323">
        <ele>737.19</ele>
        <time>2015-07-08T14:16:08Z</time>
      </trkpt>
      <trkpt lat="63.98765" lon="-19.10324">
        <ele>735.87</ele>
        <time>2015-07-08T14:16:14Z</time>
      </trkpt>
      <trkpt lat="63.98768" lon="-19.10328">
        <ele>735.16</ele>
        <time>2015-07-08T14:16:17Z</time>
      </trkpt>
      <trkpt lat="63.98774" lon="-19.10322">
        <ele>732.9</ele>
        <time>2015-07-08T14:16:24Z</time>
      </trkpt>
      <trkpt lat="63.98786" lon="-19.10328">
        <ele>729.48</ele>
        <time>2015-07-08T14:16:35Z</time>
      </trkpt>
      <trkpt lat="63.98795" lon="-19.10328">
        <ele>727.15</ele>
        <time>2015-07-08T14:16:43Z</time>
      </trkpt>
      <trkpt lat="63.98803" lon="-19.10333">
        <ele>724.82</ele>
        <time>2015-07-08T14:16:50Z</time>
      </trkpt>
      <trkpt lat="63.98811" lon="-19.10337">
        <ele>721.47</ele>
        <time>2015-07-08T14:16:58Z</time>
      </trkpt>
      <trkpt lat="63.98814" lon="-19.10337">
        <ele>719.9</ele>
        <time>2015-07-08T14:17:02Z</time>
      </trkpt>
      <trkpt lat="63.98823" lon="-19.10347">
        <ele>716.32</ele>
        <time>2015-07-08T14:17:11Z</time>
      </trkpt>
      <trkpt lat="63.98824" lon="-19.10349">
        <ele>716.03</ele>
        <time>2015-07-08T14:17:12Z</time>
      </trkpt>
      <trkpt lat="63.98839" lon="-19.10363">
        <ele>713.03</ele>
        <time>2015-07-08T14:17:25Z</time>
      </trkpt>
      <trkpt lat="63.98848" lon="-19.10364">
        <ele>709.63</ele>
        <time>2015-07-08T14:17:34Z</time>
      </trkpt>
      <trkpt lat="63.98856" lon="-19.10366">
        <ele>706.51</ele>
        <time>2015-07-08T14:17:44Z</time>
      </trkpt>
      <trkpt lat="63.98858" lon="-19.10366">
        <ele>706.14</ele>
        <time>2015-07-08T14:17:46Z</time>
      </trkpt>
      <trkpt lat="63.98872" lon="-19.10372">
        <ele>702.65</ele>
        <time>2015-07-08T14:18:00Z</time>
      </trkpt>
      <trkpt lat="63.98885" lon="-19.10373">
        <ele>699.55</ele>
        <time>2015-07-08T14:18:14Z</time>
      </trkpt>
      <trkpt lat="63.98891" lon="-19.10374">
        <ele>698.22</ele>
        <time>2015-07-08T14:18:20Z</time>
      </trkpt>
      <trkpt lat="63.98901" lon="-19.10385">
        <ele>694.74</ele>
        <time>2015-07-08T14:18:31Z</time>
      </trkpt>
      <trkpt lat="63.98902" lon="-19.10385">
        <ele>694.04</ele>
        <time>2015-07-08T14:18:36Z</time>
      </trkpt>
      <trkpt lat="63.98907" lon="-19.1039">
        <ele>693.5</ele>
        <time>2015-07-08T14:18:44Z</time>
      </trkpt>
      <trkpt lat="63.98914" lon="-19.10396">
        <ele>691.47</ele>
        <time>2015-07-08T14:18:52Z</time>
      </trkpt>
      <trkpt lat="63.98919" lon="-19.104">
        <ele>690.16</ele>
        <time>2015-07-08T14:18:57Z</time>
      </trkpt>
      <trkpt lat="63.9893" lon="-19.10403">
        <ele>686.83</ele>
        <time>2015-07-08T14:19:11Z</time>
      </trkpt>
      <trkpt lat="63.98931" lon="-19.10404">
        <ele>685.19</ele>
        <time>2015-07-08T14:19:26Z</time>
      </trkpt>
      <trkpt lat="63.98932" lon="-19.10404">
        <ele>685.74</ele>
        <time>2015-07-08T14:19:48Z</time>
      </trkpt>
      <trkpt lat="63.98937" lon="-19.10401">
        <ele>685.64</ele>
        <time>2015-07-08T14:20:01Z</time>
      </trkpt>
      <trkpt lat="63.98954" lon="-19.10407">
        <ele>682.58</ele>
        <time>2015-07-08T14:20:14Z</time>
      </trkpt>
      <trkpt lat="63.98965" lon="-19.10408">
        <ele>681.17</ele>
        <time>2015-07-08T14:20:26Z</time>
      </trkpt>
      <trkpt lat="63.9898" lon="-19.10413">
        <ele>679.48</ele>
        <time>2015-07-08T14:20:39Z</time>
      </trkpt>
      <trkpt lat="63.98981" lon="-19.10416">
        <ele>679.47</ele>
        <time>2015-07-08T14:20:46Z</time>
      </trkpt>
      <trkpt lat="63.98983" lon="-19.10424">
        <ele>679.56</ele>
        <time>2015-07-08T14:20:51Z</time>
      </trkpt>
      <trkpt lat="63.98987" lon="-19.10428">
        <ele>679.05</ele>
        <time>2015-07-08T14:20:55Z</time>
      </trkpt>
      <trkpt lat="63.9899" lon="-19.10431">
        <ele>675.82</ele>
        <time>2015-07-08T14:21:09Z</time>
      </trkpt>
      <trkpt lat="63.98992" lon="-19.10429">
        <ele>675.99</ele>
        <time>2015-07-08T14:21:20Z</time>
      </trkpt>
      <trkpt lat="63.99007" lon="-19.10426">
        <ele>673.22</ele>
        <time>2015-07-08T14:21:32Z</time>
      </trkpt>
      <trkpt lat="63.99016" lon="-19.10429">
        <ele>669.75</ele>
        <time>2015-07-08T14:21:42Z</time>
      </trkpt>
      <trkpt lat="63.99019" lon="-19.10426">
        <ele>666.55</ele>
        <time>2015-07-08T14:21:54Z</time>
      </trkpt>
      <trkpt lat="63.99021" lon="-19.10421">
        <ele>665.56</ele>
        <time>2015-07-08T14:22:05Z</time>
      </trkpt>
      <trkpt lat="63.99033" lon="-19.10416">
        <ele>663.24</ele>
        <time>2015-07-08T14:22:20Z</time>
      </trkpt>
      <trkpt lat="63.99034" lon="-19.10412">
        <ele>662.03</ele>
        <time>2015-07-08T14:22:40Z</time>
      </trkpt>
      <trkpt lat="63.99033" lon="-19.10409">
        <ele>661.82</ele>
        <time>2015-07-08T14:22:42Z</time>
      </trkpt>
      <trkpt lat="63.9902" lon="-19.10395">
        <ele>658.54</ele>
        <time>2015-07-08T14:22:56Z</time>
      </trkpt>
      <trkpt lat="63.9901" lon="-19.10378">
        <ele>655.46</ele>
        <time>2015-07-08T14:23:07Z</time>
      </trkpt>
      <trkpt lat="63.99009" lon="-19.10363">
        <ele>652.26</ele>
        <time>2015-07-08T14:23:16Z</time>
      </trkpt>
      <trkpt lat="63.99011" lon="-19.10356">
        <ele>649.14</ele>
        <time>2015-07-08T14:23:22Z</time>
      </trkpt>
      <trkpt lat="63.99013" lon="-19.10345">
        <ele>646.13</ele>
        <time>2015-07-08T14:23:30Z</time>
      </trkpt>
      <trkpt lat="63.99013" lon="-19.10342">
        <ele>644.85</ele>
        <time>2015-07-08T14:24:04Z</time>
      </trkpt>
      <trkpt lat="63.99012" lon="-19.10343">
        <ele>645.12</ele>
        <time>2015-07-08T14:24:30Z</time>
      </trkpt>
      <trkpt lat="63.99013" lon="-19.10337">
        <ele>644.46</ele>
        <time>2015-07-08T14:24:39Z</time>
      </trkpt>
      <trkpt lat="63.99019" lon="-19.10317">
        <ele>641.21</ele>
        <time>2015-07-08T14:24:50Z</time>
      </trkpt>
      <trkpt lat="63.99026" lon="-19.10296">
        <ele>637.68</ele>
        <time>2015-07-08T14:25:02Z</time>
      </trkpt>
      <trkpt lat="63.9903" lon="-19.10282">
        <ele>634.42</ele>
        <time>2015-07-08T14:25:10Z</time>
      </trkpt>
      <trkpt lat="63.99033" lon="-19.10261">
        <ele>631.4</ele>
        <time>2015-07-08T14:25:17Z</time>
      </trkpt>
      <trkpt lat="63.99034" lon="-19.10249">
        <ele>630.11</ele>
        <time>2015-07-08T14:25:22Z</time>
      </trkpt>
      <trkpt lat="63.99033" lon="-19.10232">
        <ele>630.31</ele>
        <time>2015-07-08T14:25:35Z</time>
      </trkpt>
      <trkpt lat="63.99034" lon="-19.10225">
        <ele>628.98</ele>
        <time>2015-07-08T14:25:54Z</time>
      </trkpt>
      <trkpt lat="63.99035" lon="-19.10224">
        <ele>628.9</ele>
        <time>2015-07-08T14:25:56Z</time>
      </trkpt>
      <trkpt lat="63.99037" lon="-19.10224">
        <ele>628.9</ele>
        <time>2015-07-08T14:25:58Z</time>
      </trkpt>
      <trkpt lat="63.99039" lon="-19.10225">
        <ele>628.92</ele>
        <time>2015-07-08T14:26:00Z</time>
      </trkpt>
      <trkpt lat="63.99043" lon="-19.10234">
        <ele>628.92</ele>
        <time>2015-07-08T14:26:06Z</time>
      </trkpt>
      <trkpt lat="63.99057" lon="-19.10258">
        <ele>629.92</ele>
        <time>2015-07-08T14:26:20Z</time>
      </trkpt>
      <trkpt lat="63.9906" lon="-19.10264">
        <ele>630.06</ele>
        <time>2015-07-08T14:26:23Z</time>
      </trkpt>
      <trkpt lat="63.99071" lon="-19.10289">
        <ele>630.81</ele>
        <time>2015-07-08T14:26:38Z</time>
      </trkpt>
      <trkpt lat="63.99071" lon="-19.10289">
        <ele>630.62</ele>
        <time>2015-07-08T14:27:02Z</time>
      </trkpt>
      <trkpt lat="63.99076" lon="-19.10297">
        <ele>631.09</ele>
        <time>2015-07-08T14:27:25Z</time>
      </trkpt>
      <trkpt lat="63.99075" lon="-19.10296">
        <ele>630.91</ele>
        <time>2015-07-08T14:27:44Z</time>
      </trkpt>
      <trkpt lat="63.9908" lon="-19.10297">
        <ele>631.25</ele>
        <time>2015-07-08T14:28:01Z</time>
      </trkpt>
      <trkpt lat="63.99083" lon="-19.10292">
        <ele>631.36</ele>
        <time>2015-07-08T14:28:26Z</time>
      </trkpt>
      <trkpt lat="63.99089" lon="-19.10292">
        <ele>630.84</ele>
        <time>2015-07-08T14:28:43Z</time>
      </trkpt>
      <trkpt lat="63.99083" lon="-19.10291">
        <ele>630.41</ele>
        <time>2015-07-08T14:28:56Z</time>
      </trkpt>
      <trkpt lat="63.99075" lon="-19.10299">
        <ele>631.23</ele>
        <time>2015-07-08T14:29:12Z</time>
      </trkpt>
      <trkpt lat="63.99073" lon="-19.10296">
        <ele>631.28</ele>
        <time>2015-07-08T14:29:27Z</time>
      </trkpt>
      <trkpt lat="63.99075" lon="-19.10298">
        <ele>631.12</ele>
        <time>2015-07-08T14:29:44Z</time>
      </trkpt>
      <trkpt lat="63.99076" lon="-19.10295">
        <ele>630.86</ele>
        <time>2015-07-08T14:30:05Z</time>
      </trkpt>
      <trkpt lat="63.99074" lon="-19.10295">
        <ele>630.71</ele>
        <time>2015-07-08T14:30:24Z</time>
      </trkpt>
      <trkpt lat="63.99074" lon="-19.10298">
        <ele>631.31</ele>
        <time>2015-07-08T14:30:53Z</time>
      </trkpt>
      <trkpt lat="63.99071" lon="-19.10304">
        <ele>630.84</ele>
        <time>2015-07-08T14:31:06Z</time>
      </trkpt>
      <trkpt lat="63.99073" lon="-19.10304">
        <ele>631.03</ele>
        <time>2015-07-08T14:31:30Z</time>
      </trkpt>
      <trkpt lat="63.99075" lon="-19.10297">
        <ele>630.59</ele>
        <time>2015-07-08T14:31:42Z</time>
      </trkpt>
      <trkpt lat="63.99075" lon="-19.10297">
        <ele>630.9</ele>
        <time>2015-07-08T14:32:01Z</time>
      </trkpt>
      <trkpt lat="63.99076" lon="-19.10298">
        <ele>630.53</ele>
        <time>2015-07-08T14:32:27Z</time>
      </trkpt>
      <trkpt lat="63.99079" lon="-19.10302">
        <ele>630.51</ele>
        <time>2015-07-08T14:32:53Z</time>
      </trkpt>
      <trkpt lat="63.99077" lon="-19.10301">
        <ele>630.53</ele>
        <time>2015-07-08T14:33:16Z</time>
      </trkpt>
      <trkpt lat="63.99079" lon="-19.103">
        <ele>630.89</ele>
        <time>2015-07-08T14:33:42Z</time>
      </trkpt>
      <trkpt lat="63.99082" lon="-19.10292">
        <ele>631.1</ele>
        <time>2015-07-08T14:33:49Z</time>
      </trkpt>
      <trkpt lat="63.99085" lon="-19.10239">
        <ele>630.75</ele>
        <time>2015-07-08T14:34:14Z</time>
      </trkpt>
      <trkpt lat="63.99093" lon="-19.10185">
        <ele>629.23</ele>
        <time>2015-07-08T14:34:36Z</time>
      </trkpt>
      <trkpt lat="63.99092" lon="-19.10144">
        <ele>629.08</ele>
        <time>2015-07-08T14:34:51Z</time>
      </trkpt>
      <trkpt lat="63.99091" lon="-19.10128">
        <ele>628.92</ele>
        <time>2015-07-08T14:34:57Z</time>
      </trkpt>
      <trkpt lat="63.9909" lon="-19.10105">
        <ele>629.08</ele>
        <time>2015-07-08T14:35:09Z</time>
      </trkpt>
      <trkpt lat="63.99089" lon="-19.10096">
        <ele>629.03</ele>
        <time>2015-07-08T14:35:13Z</time>
      </trkpt>
      <trkpt lat="63.99095" lon="-19.10026">
        <ele>628.27</ele>
        <time>2015-07-08T14:35:39Z</time>
      </trkpt>
      <trkpt lat="63.99096" lon="-19.10017">
        <ele>628.22</ele>
        <time>2015-07-08T14:35:42Z</time>
      </trkpt>
      <trkpt lat="63.99098" lon="-19.10004">
        <ele>628.17</ele>
        <time>2015-07-08T14:35:47Z</time>
      </trkpt>
      <trkpt lat="63.99101" lon="-19.09978">
        <ele>627.49</ele>
        <time>2015-07-08T14:36:02Z</time>
      </trkpt>
      <trkpt lat="63.99097" lon="-19.09982">
        <ele>627.58</ele>
        <time>2015-07-08T14:36:13Z</time>
      </trkpt>
      <trkpt lat="63.99096" lon="-19.09982">
        <ele>627.69</ele>
        <time>2015-07-08T14:36:15Z</time>
      </trkpt>
      <trkpt lat="63.99087" lon="-19.09951">
        <ele>627.59</ele>
        <time>2015-07-08T14:36:30Z</time>
      </trkpt>
      <trkpt lat="63.99078" lon="-19.09907">
        <ele>627.5</ele>
        <time>2015-07-08T14:36:48Z</time>
      </trkpt>
      <trkpt lat="63.99071" lon="-19.0987">
        <ele>627.16</ele>
        <time>2015-07-08T14:37:03Z</time>
      </trkpt>
      <trkpt lat="63.99067" lon="-19.09836">
        <ele>626.9</ele>
        <time>2015-07-08T14:37:20Z</time>
      </trkpt>
      <trkpt lat="63.99066" lon="-19.09825">
        <ele>626.71</ele>
        <time>2015-07-08T14:37:25Z</time>
      </trkpt>
      <trkpt lat="63.99067" lon="-19.09791">
        <ele>626.76</ele>
        <time>2015-07-08T14:37:40Z</time>
      </trkpt>
      <trkpt lat="63.99061" lon="-19.09748">
        <ele>625.88</ele>
        <time>2015-07-08T14:37:58Z</time>
      </trkpt>
      <trkpt lat="63.9906" lon="-19.09732">
        <ele>625.61</ele>
        <time>2015-07-08T14:38:04Z</time>
      </trkpt>
      <trkpt lat="63.99052" lon="-19.09688">
        <ele>625.5</ele>
        <time>2015-07-08T14:38:22Z</time>
      </trkpt>
      <trkpt lat="63.99052" lon="-19.09649">
        <ele>625.06</ele>
        <time>2015-07-08T14:38:37Z</time>
      </trkpt>
      <trkpt lat="63.99053" lon="-19.09631">
        <ele>624.82</ele>
        <time>2015-07-08T14:38:49Z</time>
      </trkpt>
      <trkpt lat="63.99052" lon="-19.09643">
        <ele>624.56</ele>
        <time>2015-07-08T14:38:55Z</time>
      </trkpt>
      <trkpt lat="63.99054" lon="-19.09648">
        <ele>624.79</ele>
        <time>2015-07-08T14:39:08Z</time>
      </trkpt>
      <trkpt lat="63.99058" lon="-19.09628">
        <ele>624.73</ele>
        <time>2015-07-08T14:39:18Z</time>
      </trkpt>
      <trkpt lat="63.99058" lon="-19.09625">
        <ele>624.76</ele>
        <time>2015-07-08T14:39:21Z</time>
      </trkpt>
      <trkpt lat="63.99056" lon="-19.09616">
        <ele>624.87</ele>
        <time>2015-07-08T14:39:25Z</time>
      </trkpt>
      <trkpt lat="63.99055" lon="-19.09609">
        <ele>624.48</ele>
        <time>2015-07-08T14:39:35Z</time>
      </trkpt>
      <trkpt lat="63.99057" lon="-19.09625">
        <ele>624.74</ele>
        <time>2015-07-08T14:39:51Z</time>
      </trkpt>
      <trkpt lat="63.99057" lon="-19.09618">
        <ele>624.6</ele>
        <time>2015-07-08T14:40:04Z</time>
      </trkpt>
      <trkpt lat="63.99054" lon="-19.09597">
        <ele>624.43</ele>
        <time>2015-07-08T14:40:13Z</time>
      </trkpt>
      <trkpt lat="63.99053" lon="-19.09589">
        <ele>624.47</ele>
        <time>2015-07-08T14:40:16Z</time>
      </trkpt>
      <trkpt lat="63.9905" lon="-19.09547">
        <ele>624.13</ele>
        <time>2015-07-08T14:40:32Z</time>
      </trkpt>
      <trkpt lat="63.99049" lon="-19.09528">
        <ele>623.98</ele>
        <time>2015-07-08T14:40:39Z</time>
      </trkpt>
      <trkpt lat="63.99048" lon="-19.09517">
        <ele>623.9</ele>
        <time>2015-07-08T14:40:43Z</time>
      </trkpt>
      <trkpt lat="63.99043" lon="-19.09484">
        <ele>623.82</ele>
        <time>2015-07-08T14:40:55Z</time>
      </trkpt>
      <trkpt lat="63.99042" lon="-19.09477">
        <ele>623.76</ele>
        <time>2015-07-08T14:40:59Z</time>
      </trkpt>
      <trkpt lat="63.99043" lon="-19.09446">
        <ele>623.6</ele>
        <time>2015-07-08T14:41:14Z</time>
      </trkpt>
      <trkpt lat="63.99041" lon="-19.09429">
        <ele>623.41</ele>
        <time>2015-07-08T14:41:21Z</time>
      </trkpt>
      <trkpt lat="63.99045" lon="-19.09388">
        <ele>623.09</ele>
        <time>2015-07-08T14:41:38Z</time>
      </trkpt>
      <trkpt lat="63.99042" lon="-19.09367">
        <ele>622.92</ele>
        <time>2015-07-08T14:41:47Z</time>
      </trkpt>
      <trkpt lat="63.9904" lon="-19.09357">
        <ele>622.81</ele>
        <time>2015-07-08T14:42:04Z</time>
      </trkpt>
      <trkpt lat="63.99041" lon="-19.09356">
        <ele>622.84</ele>
        <time>2015-07-08T14:42:07Z</time>
      </trkpt>
      <trkpt lat="63.99042" lon="-19.09373">
        <ele>622.46</ele>
        <time>2015-07-08T14:42:14Z</time>
      </trkpt>
      <trkpt lat="63.99042" lon="-19.0938">
        <ele>622.47</ele>
        <time>2015-07-08T14:42:17Z</time>
      </trkpt>
      <trkpt lat="63.9904" lon="-19.09385">
        <ele>622.45</ele>
        <time>2015-07-08T14:42:22Z</time>
      </trkpt>
      <trkpt lat="63.99031" lon="-19.09381">
        <ele>623.42</ele>
        <time>2015-07-08T14:42:32Z</time>
      </trkpt>
      <trkpt lat="63.99028" lon="-19.0937">
        <ele>624.3</ele>
        <time>2015-07-08T14:42:37Z</time>
      </trkpt>
      <trkpt lat="63.99028" lon="-19.09364">
        <ele>624.66</ele>
        <time>2015-07-08T14:42:39Z</time>
      </trkpt>
      <trkpt lat="63.99021" lon="-19.0934">
        <ele>624.97</ele>
        <time>2015-07-08T14:42:53Z</time>
      </trkpt>
      <trkpt lat="63.99006" lon="-19.09339">
        <ele>623.76</ele>
        <time>2015-07-08T14:43:07Z</time>
      </trkpt>
      <trkpt lat="63.98993" lon="-19.09344">
        <ele>623.77</ele>
        <time>2015-07-08T14:43:21Z</time>
      </trkpt>
      <trkpt lat="63.98983" lon="-19.09355">
        <ele>624.2</ele>
        <time>2015-07-08T14:43:32Z</time>
      </trkpt>
      <trkpt lat="63.98971" lon="-19.09366">
        <ele>625.07</ele>
        <time>2015-07-08T14:43:45Z</time>
      </trkpt>
      <trkpt lat="63.98965" lon="-19.09375">
        <ele>625.81</ele>
        <time>2015-07-08T14:43:57Z</time>
      </trkpt>
      <trkpt lat="63.98961" lon="-19.09377">
        <ele>626.2</ele>
        <time>2015-07-08T14:44:01Z</time>
      </trkpt>
      <trkpt lat="63.98958" lon="-19.09371">
        <ele>627.13</ele>
        <time>2015-07-08T14:44:08Z</time>
      </trkpt>
      <trkpt lat="63.98962" lon="-19.09357">
        <ele>627.26</ele>
        <time>2015-07-08T14:44:16Z</time>
      </trkpt>
      <trkpt lat="63.98962" lon="-19.09347">
        <ele>625.62</ele>
        <time>2015-07-08T14:44:29Z</time>
      </trkpt>
      <trkpt lat="63.9896" lon="-19.09326">
        <ele>626.1</ele>
        <time>2015-07-08T14:44:40Z</time>
      </trkpt>
      <trkpt lat="63.98966" lon="-19.09292">
        <ele>624.87</ele>
        <time>2015-07-08T14:44:57Z</time>
      </trkpt>
      <trkpt lat="63.98966" lon="-19.0929">
        <ele>624.81</ele>
        <time>2015-07-08T14:44:58Z</time>
      </trkpt>
      <trkpt lat="63.98975" lon="-19.09268">
        <ele>624.3</ele>
        <time>2015-07-08T14:45:13Z</time>
      </trkpt>
      <trkpt lat="63.98985" lon="-19.09245">
        <ele>625.52</ele>
        <time>2015-07-08T14:45:32Z</time>
      </trkpt>
      <trkpt lat="63.98997" lon="-19.09225">
        <ele>625.98</ele>
        <time>2015-07-08T14:45:49Z</time>
      </trkpt>
      <trkpt lat="63.99008" lon="-19.092">
        <ele>626.05</ele>
        <time>2015-07-08T14:46:10Z</time>
      </trkpt>
      <trkpt lat="63.99011" lon="-19.09157">
        <ele>627.21</ele>
        <time>2015-07-08T14:46:29Z</time>
      </trkpt>
      <trkpt lat="63.99011" lon="-19.09156">
        <ele>627.24</ele>
        <time>2015-07-08T14:46:30Z</time>
      </trkpt>
      <trkpt lat="63.99012" lon="-19.09121">
        <ele>627.31</ele>
        <time>2015-07-08T14:46:47Z</time>
      </trkpt>
      <trkpt lat="63.99012" lon="-19.09087">
        <ele>626.75</ele>
        <time>2015-07-08T14:47:04Z</time>
      </trkpt>
      <trkpt lat="63.9901" lon="-19.09045">
        <ele>626.25</ele>
        <time>2015-07-08T14:47:23Z</time>
      </trkpt>
      <trkpt lat="63.9901" lon="-19.09041">
        <ele>626.17</ele>
        <time>2015-07-08T14:47:25Z</time>
      </trkpt>
      <trkpt lat="63.99007" lon="-19.09031">
        <ele>625.96</ele>
        <time>2015-07-08T14:47:30Z</time>
      </trkpt>
      <trkpt lat="63.98999" lon="-19.09021">
        <ele>626.01</ele>
        <time>2015-07-08T14:47:37Z</time>
      </trkpt>
      <trkpt lat="63.98979" lon="-19.09">
        <ele>626.18</ele>
        <time>2015-07-08T14:47:54Z</time>
      </trkpt>
      <trkpt lat="63.98964" lon="-19.08991">
        <ele>625.13</ele>
        <time>2015-07-08T14:48:08Z</time>
      </trkpt>
      <trkpt lat="63.98948" lon="-19.08989">
        <ele>624.07</ele>
        <time>2015-07-08T14:48:21Z</time>
      </trkpt>
      <trkpt lat="63.98932" lon="-19.08982">
        <ele>623.15</ele>
        <time>2015-07-08T14:48:37Z</time>
      </trkpt>
      <trkpt lat="63.9893" lon="-19.08983">
        <ele>623.21</ele>
        <time>2015-07-08T14:48:39Z</time>
      </trkpt>
      <trkpt lat="63.98923" lon="-19.08976">
        <ele>624.14</ele>
        <time>2015-07-08T14:48:48Z</time>
      </trkpt>
      <trkpt lat="63.98914" lon="-19.0897">
        <ele>624.08</ele>
        <time>2015-07-08T14:49:04Z</time>
      </trkpt>
      <trkpt lat="63.9891" lon="-19.08962">
        <ele>624.15</ele>
        <time>2015-07-08T14:49:09Z</time>
      </trkpt>
      <trkpt lat="63.98897" lon="-19.08937">
        <ele>624.12</ele>
        <time>2015-07-08T14:49:25Z</time>
      </trkpt>
      <trkpt lat="63.98891" lon="-19.08917">
        <ele>623.93</ele>
        <time>2015-07-08T14:49:35Z</time>
      </trkpt>
      <trkpt lat="63.9889" lon="-19.08905">
        <ele>623.82</ele>
        <time>2015-07-08T14:49:40Z</time>
      </trkpt>
      <trkpt lat="63.98883" lon="-19.08892">
        <ele>623.92</ele>
        <time>2015-07-08T14:49:50Z</time>
      </trkpt>
      <trkpt lat="63.98881" lon="-19.08889">
        <ele>624.05</ele>
        <time>2015-07-08T14:49:52Z</time>
      </trkpt>
      <trkpt lat="63.98871" lon="-19.08853">
        <ele>624.35</ele>
        <time>2015-07-08T14:50:09Z</time>
      </trkpt>
      <trkpt lat="63.98864" lon="-19.08823">
        <ele>623.91</ele>
        <time>2015-07-08T14:50:23Z</time>
      </trkpt>
      <trkpt lat="63.98863" lon="-19.0882">
        <ele>623.78</ele>
        <time>2015-07-08T14:50:25Z</time>
      </trkpt>
      <trkpt lat="63.98853" lon="-19.08804">
        <ele>623.97</ele>
        <time>2015-07-08T14:50:39Z</time>
      </trkpt>
      <trkpt lat="63.98851" lon="-19.08802">
        <ele>623.99</ele>
        <time>2015-07-08T14:50:41Z</time>
      </trkpt>
      <trkpt lat="63.98844" lon="-19.08788">
        <ele>624.19</ele>
        <time>2015-07-08T14:50:57Z</time>
      </trkpt>
      <trkpt lat="63.98842" lon="-19.08785">
        <ele>623.98</ele>
        <time>2015-07-08T14:51:01Z</time>
      </trkpt>
      <trkpt lat="63.98841" lon="-19.08779">
        <ele>623.85</ele>
        <time>2015-07-08T14:51:04Z</time>
      </trkpt>
      <trkpt lat="63.98837" lon="-19.08777">
        <ele>623.77</ele>
        <time>2015-07-08T14:51:08Z</time>
      </trkpt>
      <trkpt lat="63.98835" lon="-19.08771">
        <ele>623.66</ele>
        <time>2015-07-08T14:51:12Z</time>
      </trkpt>
      <trkpt lat="63.98828" lon="-19.08761">
        <ele>623.25</ele>
        <time>2015-07-08T14:51:24Z</time>
      </trkpt>
      <trkpt lat="63.98828" lon="-19.0876">
        <ele>623.23</ele>
        <time>2015-07-08T14:51:32Z</time>
      </trkpt>
      <trkpt lat="63.98831" lon="-19.08768">
        <ele>623.33</ele>
        <time>2015-07-08T14:51:37Z</time>
      </trkpt>
      <trkpt lat="63.98842" lon="-19.0875">
        <ele>623.15</ele>
        <time>2015-07-08T14:51:48Z</time>
      </trkpt>
      <trkpt lat="63.9886" lon="-19.08743">
        <ele>622.74</ele>
        <time>2015-07-08T14:52:01Z</time>
      </trkpt>
      <trkpt lat="63.9887" lon="-19.0874">
        <ele>622.63</ele>
        <time>2015-07-08T14:52:11Z</time>
      </trkpt>
      <trkpt lat="63.98871" lon="-19.08741">
        <ele>622.63</ele>
        <time>2015-07-08T14:52:12Z</time>
      </trkpt>
      <trkpt lat="63.98878" lon="-19.08755">
        <ele>622.81</ele>
        <time>2015-07-08T14:52:19Z</time>
      </trkpt>
      <trkpt lat="63.98881" lon="-19.08761">
        <ele>622.84</ele>
        <time>2015-07-08T14:52:23Z</time>
      </trkpt>
      <trkpt lat="63.98884" lon="-19.08736">
        <ele>622.59</ele>
        <time>2015-07-08T14:52:35Z</time>
      </trkpt>
      <trkpt lat="63.98881" lon="-19.08709">
        <ele>622.8</ele>
        <time>2015-07-08T14:52:45Z</time>
      </trkpt>
      <trkpt lat="63.98881" lon="-19.08703">
        <ele>622.92</ele>
        <time>2015-07-08T14:52:47Z</time>
      </trkpt>
      <trkpt lat="63.98889" lon="-19.08669">
        <ele>623.34</ele>
        <time>2015-07-08T14:52:59Z</time>
      </trkpt>
      <trkpt lat="63.98895" lon="-19.08644">
        <ele>623.54</ele>
        <time>2015-07-08T14:53:08Z</time>
      </trkpt>
      <trkpt lat="63.98906" lon="-19.0863">
        <ele>623.79</ele>
        <time>2015-07-08T14:53:18Z</time>
      </trkpt>
      <trkpt lat="63.98908" lon="-19.08627">
        <ele>623.87</ele>
        <time>2015-07-08T14:53:21Z</time>
      </trkpt>
      <trkpt lat="63.98919" lon="-19.08624">
        <ele>624.01</ele>
        <time>2015-07-08T14:53:29Z</time>
      </trkpt>
      <trkpt lat="63.98934" lon="-19.08617">
        <ele>624.02</ele>
        <time>2015-07-08T14:53:39Z</time>
      </trkpt>
      <trkpt lat="63.98951" lon="-19.08615">
        <ele>623.51</ele>
        <time>2015-07-08T14:53:52Z</time>
      </trkpt>
      <trkpt lat="63.98962" lon="-19.08606">
        <ele>623.26</ele>
        <time>2015-07-08T14:54:02Z</time>
      </trkpt>
      <trkpt lat="63.98974" lon="-19.08583">
        <ele>623.15</ele>
        <time>2015-07-08T14:54:15Z</time>
      </trkpt>
      <trkpt lat="63.98974" lon="-19.08582">
        <ele>623.09</ele>
        <time>2015-07-08T14:54:16Z</time>
      </trkpt>
      <trkpt lat="63.98975" lon="-19.08579">
        <ele>623.15</ele>
        <time>2015-07-08T14:54:18Z</time>
      </trkpt>
      <trkpt lat="63.98982" lon="-19.08576">
        <ele>623.24</ele>
        <time>2015-07-08T14:54:25Z</time>
      </trkpt>
      <trkpt lat="63.98988" lon="-19.08574">
        <ele>623.28</ele>
        <time>2015-07-08T14:54:31Z</time>
      </trkpt>
      <trkpt lat="63.98994" lon="-19.08568">
        <ele>623.58</ele>
        <time>2015-07-08T14:54:37Z</time>
      </trkpt>
      <trkpt lat="63.99005" lon="-19.08553">
        <ele>624.37</ele>
        <time>2015-07-08T14:54:50Z</time>
      </trkpt>
      <trkpt lat="63.99007" lon="-19.0855">
        <ele>625.12</ele>
        <time>2015-07-08T14:55:03Z</time>
      </trkpt>
      <trkpt lat="63.99001" lon="-19.0856">
        <ele>625.75</ele>
        <time>2015-07-08T14:55:18Z</time>
      </trkpt>
      <trkpt lat="63.98999" lon="-19.08566">
        <ele>625.6</ele>
        <time>2015-07-08T14:55:27Z</time>
      </trkpt>
      <trkpt lat="63.99" lon="-19.08578">
        <ele>625.23</ele>
        <time>2015-07-08T14:55:44Z</time>
      </trkpt>
      <trkpt lat="63.99001" lon="-19.08571">
        <ele>624.97</ele>
        <time>2015-07-08T14:55:55Z</time>
      </trkpt>
      <trkpt lat="63.99005" lon="-19.08536">
        <ele>625.5</ele>
        <time>2015-07-08T14:56:10Z</time>
      </trkpt>
      <trkpt lat="63.99018" lon="-19.08515">
        <ele>627.33</ele>
        <time>2015-07-08T14:56:26Z</time>
      </trkpt>
      <trkpt lat="63.99019" lon="-19.08512">
        <ele>627.61</ele>
        <time>2015-07-08T14:56:29Z</time>
      </trkpt>
      <trkpt lat="63.99022" lon="-19.08508">
        <ele>628.33</ele>
        <time>2015-07-08T14:56:48Z</time>
      </trkpt>
      <trkpt lat="63.99024" lon="-19.08504">
        <ele>628.23</ele>
        <time>2015-07-08T14:56:51Z</time>
      </trkpt>
      <trkpt lat="63.9903" lon="-19.0849">
        <ele>628.3</ele>
        <time>2015-07-08T14:56:58Z</time>
      </trkpt>
      <trkpt lat="63.99038" lon="-19.08465">
        <ele>629.85</ele>
        <time>2015-07-08T14:57:14Z</time>
      </trkpt>
      <trkpt lat="63.99052" lon="-19.08445">
        <ele>632.38</ele>
        <time>2015-07-08T14:57:32Z</time>
      </trkpt>
      <trkpt lat="63.99054" lon="-19.08441">
        <ele>633.09</ele>
        <time>2015-07-08T14:57:54Z</time>
      </trkpt>
      <trkpt lat="63.99054" lon="-19.08441">
        <ele>633.08</ele>
        <time>2015-07-08T14:58:20Z</time>
      </trkpt>
      <trkpt lat="63.99057" lon="-19.08433">
        <ele>633.06</ele>
        <time>2015-07-08T14:58:37Z</time>
      </trkpt>
      <trkpt lat="63.99057" lon="-19.08435">
        <ele>633.29</ele>
        <time>2015-07-08T14:59:00Z</time>
      </trkpt>
      <trkpt lat="63.99058" lon="-19.08434">
        <ele>633.26</ele>
        <time>2015-07-08T14:59:01Z</time>
      </trkpt>
      <trkpt lat="63.9906" lon="-19.08439">
        <ele>633.16</ele>
        <time>2015-07-08T14:59:05Z</time>
      </trkpt>
      <trkpt lat="63.99061" lon="-19.0845">
        <ele>633.27</ele>
        <time>2015-07-08T14:59:20Z</time>
      </trkpt>
      <trkpt lat="63.99061" lon="-19.08455">
        <ele>633.54</ele>
        <time>2015-07-08T14:59:38Z</time>
      </trkpt>
      <trkpt lat="63.99062" lon="-19.0845">
        <ele>633.51</ele>
        <time>2015-07-08T14:59:41Z</time>
      </trkpt>
      <trkpt lat="63.99063" lon="-19.08444">
        <ele>633.43</ele>
        <time>2015-07-08T14:59:44Z</time>
      </trkpt>
      <trkpt lat="63.9907" lon="-19.08449">
        <ele>633.96</ele>
        <time>2015-07-08T14:59:58Z</time>
      </trkpt>
      <trkpt lat="63.99071" lon="-19.08463">
        <ele>633.7</ele>
        <time>2015-07-08T15:00:13Z</time>
      </trkpt>
      <trkpt lat="63.99071" lon="-19.08467">
        <ele>633.31</ele>
        <time>2015-07-08T15:00:33Z</time>
      </trkpt>
      <trkpt lat="63.9907" lon="-19.08461">
        <ele>633.16</ele>
        <time>2015-07-08T15:00:54Z</time>
      </trkpt>
      <trkpt lat="63.9907" lon="-19.08457">
        <ele>633.38</ele>
        <time>2015-07-08T15:00:56Z</time>
      </trkpt>
      <trkpt lat="63.99071" lon="-19.08453">
        <ele>633.59</ele>
        <time>2015-07-08T15:00:58Z</time>
      </trkpt>
      <trkpt lat="63.99067" lon="-19.08439">
        <ele>634.29</ele>
        <time>2015-07-08T15:01:15Z</time>
      </trkpt>
      <trkpt lat="63.99064" lon="-19.08427">
        <ele>634.17</ele>
        <time>2015-07-08T15:01:30Z</time>
      </trkpt>
      <trkpt lat="63.99068" lon="-19.08418">
        <ele>634.58</ele>
        <time>2015-07-08T15:02:00Z</time>
      </trkpt>
      <trkpt lat="63.99067" lon="-19.0839">
        <ele>635.39</ele>
        <time>2015-07-08T15:02:16Z</time>
      </trkpt>
      <trkpt lat="63.99067" lon="-19.08389">
        <ele>636.5</ele>
        <time>2015-07-08T15:02:32Z</time>
      </trkpt>
      <trkpt lat="63.99067" lon="-19.0839">
        <ele>636</ele>
        <time>2015-07-08T15:03:02Z</time>
      </trkpt>
      <trkpt lat="63.99066" lon="-19.08393">
        <ele>636.14</ele>
        <time>2015-07-08T15:03:34Z</time>
      </trkpt>
      <trkpt lat="63.99067" lon="-19.08393">
        <ele>636.57</ele>
        <time>2015-07-08T15:04:11Z</time>
      </trkpt>
      <trkpt lat="63.99069" lon="-19.08388">
        <ele>636.6</ele>
        <time>2015-07-08T15:04:39Z</time>
      </trkpt>
      <trkpt lat="63.99065" lon="-19.08388">
        <ele>636.67</ele>
        <time>2015-07-08T15:04:48Z</time>
      </trkpt>
      <trkpt lat="63.99062" lon="-19.08387">
        <ele>636.34</ele>
        <time>2015-07-08T15:04:52Z</time>
      </trkpt>
      <trkpt lat="63.99061" lon="-19.08371">
        <ele>635.5</ele>
        <time>2015-07-08T15:04:58Z</time>
      </trkpt>
      <trkpt lat="63.9906" lon="-19.08331">
        <ele>634.47</ele>
        <time>2015-07-08T15:05:13Z</time>
      </trkpt>
      <trkpt lat="63.99063" lon="-19.08313">
        <ele>634.69</ele>
        <time>2015-07-08T15:05:21Z</time>
      </trkpt>
      <trkpt lat="63.99064" lon="-19.08308">
        <ele>634.77</ele>
        <time>2015-07-08T15:05:23Z</time>
      </trkpt>
      <trkpt lat="63.99063" lon="-19.08264">
        <ele>635.56</ele>
        <time>2015-07-08T15:05:38Z</time>
      </trkpt>
      <trkpt lat="63.99061" lon="-19.08227">
        <ele>637.43</ele>
        <time>2015-07-08T15:05:52Z</time>
      </trkpt>
      <trkpt lat="63.99063" lon="-19.082">
        <ele>638.64</ele>
        <time>2015-07-08T15:06:03Z</time>
      </trkpt>
      <trkpt lat="63.99067" lon="-19.0817">
        <ele>639.04</ele>
        <time>2015-07-08T15:06:16Z</time>
      </trkpt>
      <trkpt lat="63.99066" lon="-19.08163">
        <ele>638.97</ele>
        <time>2015-07-08T15:06:20Z</time>
      </trkpt>
      <trkpt lat="63.99061" lon="-19.08129">
        <ele>638.79</ele>
        <time>2015-07-08T15:06:33Z</time>
      </trkpt>
      <trkpt lat="63.9906" lon="-19.08114">
        <ele>638.73</ele>
        <time>2015-07-08T15:06:39Z</time>
      </trkpt>
      <trkpt lat="63.99059" lon="-19.08103">
        <ele>639.04</ele>
        <time>2015-07-08T15:06:46Z</time>
      </trkpt>
      <trkpt lat="63.99062" lon="-19.08088">
        <ele>640.2</ele>
        <time>2015-07-08T15:07:02Z</time>
      </trkpt>
      <trkpt lat="63.99058" lon="-19.08082">
        <ele>640.44</ele>
        <time>2015-07-08T15:07:32Z</time>
      </trkpt>
      <trkpt lat="63.99055" lon="-19.08059">
        <ele>639.64</ele>
        <time>2015-07-08T15:07:41Z</time>
      </trkpt>
      <trkpt lat="63.99054" lon="-19.08055">
        <ele>639.62</ele>
        <time>2015-07-08T15:07:43Z</time>
      </trkpt>
      <trkpt lat="63.99054" lon="-19.08045">
        <ele>639.66</ele>
        <time>2015-07-08T15:07:47Z</time>
      </trkpt>
      <trkpt lat="63.99052" lon="-19.08029">
        <ele>639.68</ele>
        <time>2015-07-08T15:07:54Z</time>
      </trkpt>
      <trkpt lat="63.99049" lon="-19.07983">
        <ele>639.6</ele>
        <time>2015-07-08T15:08:12Z</time>
      </trkpt>
      <trkpt lat="63.9905" lon="-19.07975">
        <ele>639.96</ele>
        <time>2015-07-08T15:08:15Z</time>
      </trkpt>
      <trkpt lat="63.99055" lon="-19.07964">
        <ele>640.16</ele>
        <time>2015-07-08T15:08:22Z</time>
      </trkpt>
      <trkpt lat="63.99057" lon="-19.07958">
        <ele>640.16</ele>
        <time>2015-07-08T15:08:25Z</time>
      </trkpt>
      <trkpt lat="63.9906" lon="-19.07939">
        <ele>640.92</ele>
        <time>2015-07-08T15:08:33Z</time>
      </trkpt>
      <trkpt lat="63.99063" lon="-19.0793">
        <ele>641.26</ele>
        <time>2015-07-08T15:08:38Z</time>
      </trkpt>
      <trkpt lat="63.99063" lon="-19.07921">
        <ele>641.29</ele>
        <time>2015-07-08T15:08:42Z</time>
      </trkpt>
      <trkpt lat="63.99062" lon="-19.07876">
        <ele>641.35</ele>
        <time>2015-07-08T15:08:59Z</time>
      </trkpt>
      <trkpt lat="63.99062" lon="-19.07869">
        <ele>641.17</ele>
        <time>2015-07-08T15:09:02Z</time>
      </trkpt>
      <trkpt lat="63.99065" lon="-19.07849">
        <ele>640.83</ele>
        <time>2015-07-08T15:09:10Z</time>
      </trkpt>
      <trkpt lat="63.99065" lon="-19.07838">
        <ele>640.72</ele>
        <time>2015-07-08T15:09:15Z</time>
      </trkpt>
      <trkpt lat="63.99064" lon="-19.07833">
        <ele>640.76</ele>
        <time>2015-07-08T15:09:17Z</time>
      </trkpt>
      <trkpt lat="63.99064" lon="-19.07806">
        <ele>641.41</ele>
        <time>2015-07-08T15:09:29Z</time>
      </trkpt>
      <trkpt lat="63.99065" lon="-19.07795">
        <ele>641.17</ele>
        <time>2015-07-08T15:09:35Z</time>
      </trkpt>
      <trkpt lat="63.99065" lon="-19.07785">
        <ele>641.09</ele>
        <time>2015-07-08T15:09:39Z</time>
      </trkpt>
      <trkpt lat="63.99068" lon="-19.07759">
        <ele>640.86</ele>
        <time>2015-07-08T15:09:53Z</time>
      </trkpt>
      <trkpt lat="63.9907" lon="-19.07746">
        <ele>640.98</ele>
        <time>2015-07-08T15:09:59Z</time>
      </trkpt>
      <trkpt lat="63.99072" lon="-19.07724">
        <ele>640.89</ele>
        <time>2015-07-08T15:10:07Z</time>
      </trkpt>
      <trkpt lat="63.99071" lon="-19.07714">
        <ele>640.94</ele>
        <time>2015-07-08T15:10:11Z</time>
      </trkpt>
      <trkpt lat="63.99069" lon="-19.07689">
        <ele>641.53</ele>
        <time>2015-07-08T15:10:22Z</time>
      </trkpt>
      <trkpt lat="63.99068" lon="-19.07685">
        <ele>641.47</ele>
        <time>2015-07-08T15:10:24Z</time>
      </trkpt>
      <trkpt lat="63.99063" lon="-19.07643">
        <ele>640.3</ele>
        <time>2015-07-08T15:10:40Z</time>
      </trkpt>
      <trkpt lat="63.99063" lon="-19.07591">
        <ele>639.92</ele>
        <time>2015-07-08T15:10:59Z</time>
      </trkpt>
      <trkpt lat="63.99062" lon="-19.07551">
        <ele>640.28</ele>
        <time>2015-07-08T15:11:15Z</time>
      </trkpt>
      <trkpt lat="63.99065" lon="-19.07518">
        <ele>640.42</ele>
        <time>2015-07-08T15:11:31Z</time>
      </trkpt>
      <trkpt lat="63.99066" lon="-19.0751">
        <ele>640.29</ele>
        <time>2015-07-08T15:11:35Z</time>
      </trkpt>
      <trkpt lat="63.99074" lon="-19.07486">
        <ele>639.88</ele>
        <time>2015-07-08T15:11:49Z</time>
      </trkpt>
      <trkpt lat="63.99079" lon="-19.07467">
        <ele>639.37</ele>
        <time>2015-07-08T15:12:01Z</time>
      </trkpt>
      <trkpt lat="63.9908" lon="-19.07463">
        <ele>639.3</ele>
        <time>2015-07-08T15:12:03Z</time>
      </trkpt>
      <trkpt lat="63.99082" lon="-19.07459">
        <ele>639.28</ele>
        <time>2015-07-08T15:12:05Z</time>
      </trkpt>
      <trkpt lat="63.99084" lon="-19.0745">
        <ele>639.25</ele>
        <time>2015-07-08T15:12:09Z</time>
      </trkpt>
      <trkpt lat="63.99077" lon="-19.07408">
        <ele>639.29</ele>
        <time>2015-07-08T15:12:26Z</time>
      </trkpt>
      <trkpt lat="63.99078" lon="-19.07401">
        <ele>639.29</ele>
        <time>2015-07-08T15:12:29Z</time>
      </trkpt>
      <trkpt lat="63.99078" lon="-19.07374">
        <ele>638.92</ele>
        <time>2015-07-08T15:12:40Z</time>
      </trkpt>
      <trkpt lat="63.99077" lon="-19.07363">
        <ele>638.72</ele>
        <time>2015-07-08T15:12:44Z</time>
      </trkpt>
      <trkpt lat="63.99066" lon="-19.0733">
        <ele>639.82</ele>
        <time>2015-07-08T15:13:00Z</time>
      </trkpt>
      <trkpt lat="63.99063" lon="-19.07324">
        <ele>639.79</ele>
        <time>2015-07-08T15:13:03Z</time>
      </trkpt>
      <trkpt lat="63.99054" lon="-19.07297">
        <ele>638.64</ele>
        <time>2015-07-08T15:13:15Z</time>
      </trkpt>
      <trkpt lat="63.99044" lon="-19.0725">
        <ele>637.8</ele>
        <time>2015-07-08T15:13:34Z</time>
      </trkpt>
      <trkpt lat="63.99044" lon="-19.07248">
        <ele>637.84</ele>
        <time>2015-07-08T15:13:35Z</time>
      </trkpt>
      <trkpt lat="63.99047" lon="-19.07231">
        <ele>637.97</ele>
        <time>2015-07-08T15:13:43Z</time>
      </trkpt>
      <trkpt lat="63.99047" lon="-19.07226">
        <ele>637.93</ele>
        <time>2015-07-08T15:13:45Z</time>
      </trkpt>
      <trkpt lat="63.99047" lon="-19.07211">
        <ele>637.75</ele>
        <time>2015-07-08T15:13:50Z</time>
      </trkpt>
      <trkpt lat="63.99043" lon="-19.07162">
        <ele>636.03</ele>
        <time>2015-07-08T15:14:07Z</time>
      </trkpt>
      <trkpt lat="63.99043" lon="-19.07122">
        <ele>635.56</ele>
        <time>2015-07-08T15:14:22Z</time>
      </trkpt>
      <trkpt lat="63.99044" lon="-19.07102">
        <ele>635.8</ele>
        <time>2015-07-08T15:14:37Z</time>
      </trkpt>
      <trkpt lat="63.99043" lon="-19.07097">
        <ele>635.77</ele>
        <time>2015-07-08T15:14:50Z</time>
      </trkpt>
      <trkpt lat="63.99043" lon="-19.07097">
        <ele>635.02</ele>
        <time>2015-07-08T15:15:09Z</time>
      </trkpt>
      <trkpt lat="63.99051" lon="-19.07061">
        <ele>635.93</ele>
        <time>2015-07-08T15:15:26Z</time>
      </trkpt>
      <trkpt lat="63.9906" lon="-19.07024">
        <ele>634.41</ele>
        <time>2015-07-08T15:15:43Z</time>
      </trkpt>
      <trkpt lat="63.99065" lon="-19.07004">
        <ele>633.42</ele>
        <time>2015-07-08T15:15:55Z</time>
      </trkpt>
      <trkpt lat="63.99067" lon="-19.06965">
        <ele>632.76</ele>
        <time>2015-07-08T15:16:08Z</time>
      </trkpt>
      <trkpt lat="63.99074" lon="-19.06911">
        <ele>632.71</ele>
        <time>2015-07-08T15:16:27Z</time>
      </trkpt>
      <trkpt lat="63.99081" lon="-19.06862">
        <ele>631.19</ele>
        <time>2015-07-08T15:16:45Z</time>
      </trkpt>
      <trkpt lat="63.99085" lon="-19.06845">
        <ele>630.27</ele>
        <time>2015-07-08T15:16:52Z</time>
      </trkpt>
      <trkpt lat="63.99081" lon="-19.06803">
        <ele>629.94</ele>
        <time>2015-07-08T15:17:08Z</time>
      </trkpt>
      <trkpt lat="63.99078" lon="-19.06778">
        <ele>629.48</ele>
        <time>2015-07-08T15:17:18Z</time>
      </trkpt>
      <trkpt lat="63.99068" lon="-19.06737">
        <ele>628.59</ele>
        <time>2015-07-08T15:17:36Z</time>
      </trkpt>
      <trkpt lat="63.99065" lon="-19.067">
        <ele>627.59</ele>
        <time>2015-07-08T15:17:48Z</time>
      </trkpt>
      <trkpt lat="63.99067" lon="-19.06642">
        <ele>627.07</ele>
        <time>2015-07-08T15:18:08Z</time>
      </trkpt>
      <trkpt lat="63.99064" lon="-19.06592">
        <ele>627.69</ele>
        <time>2015-07-08T15:18:25Z</time>
      </trkpt>
      <trkpt lat="63.9906" lon="-19.06547">
        <ele>628.3</ele>
        <time>2015-07-08T15:18:43Z</time>
      </trkpt>
      <trkpt lat="63.99061" lon="-19.0654">
        <ele>627.73</ele>
        <time>2015-07-08T15:18:47Z</time>
      </trkpt>
      <trkpt lat="63.9907" lon="-19.06524">
        <ele>624.96</ele>
        <time>2015-07-08T15:18:58Z</time>
      </trkpt>
      <trkpt lat="63.99075" lon="-19.06522">
        <ele>624.2</ele>
        <time>2015-07-08T15:19:03Z</time>
      </trkpt>
      <trkpt lat="63.99081" lon="-19.06525">
        <ele>624.43</ele>
        <time>2015-07-08T15:19:09Z</time>
      </trkpt>
      <trkpt lat="63.99086" lon="-19.06529">
        <ele>624.66</ele>
        <time>2015-07-08T15:19:14Z</time>
      </trkpt>
      <trkpt lat="63.991" lon="-19.06514">
        <ele>622.28</ele>
        <time>2015-07-08T15:19:30Z</time>
      </trkpt>
      <trkpt lat="63.99095" lon="-19.06498">
        <ele>619.14</ele>
        <time>2015-07-08T15:19:44Z</time>
      </trkpt>
      <trkpt lat="63.99089" lon="-19.06486">
        <ele>616.6</ele>
        <time>2015-07-08T15:19:58Z</time>
      </trkpt>
      <trkpt lat="63.99081" lon="-19.06476">
        <ele>614.89</ele>
        <time>2015-07-08T15:20:11Z</time>
      </trkpt>
      <trkpt lat="63.99082" lon="-19.06462">
        <ele>612.48</ele>
        <time>2015-07-08T15:20:24Z</time>
      </trkpt>
      <trkpt lat="63.99083" lon="-19.06437">
        <ele>610.03</ele>
        <time>2015-07-08T15:20:41Z</time>
      </trkpt>
      <trkpt lat="63.99083" lon="-19.06428">
        <ele>606.8</ele>
        <time>2015-07-08T15:20:50Z</time>
      </trkpt>
      <trkpt lat="63.99083" lon="-19.06419">
        <ele>603.75</ele>
        <time>2015-07-08T15:20:59Z</time>
      </trkpt>
      <trkpt lat="63.99086" lon="-19.064">
        <ele>601.06</ele>
        <time>2015-07-08T15:21:18Z</time>
      </trkpt>
      <trkpt lat="63.99086" lon="-19.06384">
        <ele>599.58</ele>
        <time>2015-07-08T15:21:33Z</time>
      </trkpt>
      <trkpt lat="63.99084" lon="-19.06374">
        <ele>599.31</ele>
        <time>2015-07-08T15:21:48Z</time>
      </trkpt>
      <trkpt lat="63.99083" lon="-19.06372">
        <ele>599.45</ele>
        <time>2015-07-08T15:22:16Z</time>
      </trkpt>
      <trkpt lat="63.99081" lon="-19.06372">
        <ele>599.87</ele>
        <time>2015-07-08T15:22:48Z</time>
      </trkpt>
      <trkpt lat="63.99081" lon="-19.06375">
        <ele>600.15</ele>
        <time>2015-07-08T15:23:10Z</time>
      </trkpt>
      <trkpt lat="63.99083" lon="-19.06373">
        <ele>599.49</ele>
        <time>2015-07-08T15:23:35Z</time>
      </trkpt>
      <trkpt lat="63.99084" lon="-19.06374">
        <ele>600.47</ele>
        <time>2015-07-08T15:23:54Z</time>
      </trkpt>
      <trkpt lat="63.99089" lon="-19.06361">
        <ele>597.16</ele>
        <time>2015-07-08T15:24:08Z</time>
      </trkpt>
      <trkpt lat="63.9909" lon="-19.06356">
        <ele>596.43</ele>
        <time>2015-07-08T15:24:12Z</time>
      </trkpt>
      <trkpt lat="63.99086" lon="-19.06335">
        <ele>594.15</ele>
        <time>2015-07-08T15:24:26Z</time>
      </trkpt>
      <trkpt lat="63.99078" lon="-19.06316">
        <ele>594</ele>
        <time>2015-07-08T15:24:42Z</time>
      </trkpt>
      <trkpt lat="63.99077" lon="-19.06299">
        <ele>593.86</ele>
        <time>2015-07-08T15:24:58Z</time>
      </trkpt>
      <trkpt lat="63.99072" lon="-19.06302">
        <ele>593.79</ele>
        <time>2015-07-08T15:25:15Z</time>
      </trkpt>
      <trkpt lat="63.99076" lon="-19.06294">
        <ele>593.98</ele>
        <time>2015-07-08T15:25:27Z</time>
      </trkpt>
      <trkpt lat="63.99076" lon="-19.06285">
        <ele>594.01</ele>
        <time>2015-07-08T15:25:31Z</time>
      </trkpt>
      <trkpt lat="63.99075" lon="-19.06275">
        <ele>594.31</ele>
        <time>2015-07-08T15:25:48Z</time>
      </trkpt>
      <trkpt lat="63.99074" lon="-19.06279">
        <ele>594.98</ele>
        <time>2015-07-08T15:26:26Z</time>
      </trkpt>
      <trkpt lat="63.99076" lon="-19.06277">
        <ele>594.94</ele>
        <time>2015-07-08T15:26:50Z</time>
      </trkpt>
      <trkpt lat="63.99075" lon="-19.0627">
        <ele>594.59</ele>
        <time>2015-07-08T15:27:06Z</time>
      </trkpt>
      <trkpt lat="63.99075" lon="-19.06252">
        <ele>595.31</ele>
        <time>2015-07-08T15:27:20Z</time>
      </trkpt>
      <trkpt lat="63.99069" lon="-19.06204">
        <ele>595.35</ele>
        <time>2015-07-08T15:27:39Z</time>
      </trkpt>
      <trkpt lat="63.99064" lon="-19.06169">
        <ele>595.59</ele>
        <time>2015-07-08T15:27:53Z</time>
      </trkpt>
      <trkpt lat="63.99066" lon="-19.06146">
        <ele>595.94</ele>
        <time>2015-07-08T15:28:03Z</time>
      </trkpt>
      <trkpt lat="63.99067" lon="-19.06112">
        <ele>596.21</ele>
        <time>2015-07-08T15:28:20Z</time>
      </trkpt>
      <trkpt lat="63.99064" lon="-19.06084">
        <ele>596.68</ele>
        <time>2015-07-08T15:28:35Z</time>
      </trkpt>
      <trkpt lat="63.99063" lon="-19.06056">
        <ele>596.2</ele>
        <time>2015-07-08T15:28:54Z</time>
      </trkpt>
      <trkpt lat="63.99066" lon="-19.06046">
        <ele>596.1</ele>
        <time>2015-07-08T15:29:13Z</time>
      </trkpt>
      <trkpt lat="63.99071" lon="-19.0603">
        <ele>595.81</ele>
        <time>2015-07-08T15:29:31Z</time>
      </trkpt>
      <trkpt lat="63.9907" lon="-19.06028">
        <ele>595.43</ele>
        <time>2015-07-08T15:29:43Z</time>
      </trkpt>
      <trkpt lat="63.99067" lon="-19.06027">
        <ele>595.78</ele>
        <time>2015-07-08T15:30:16Z</time>
      </trkpt>
      <trkpt lat="63.99066" lon="-19.06028">
        <ele>595.76</ele>
        <time>2015-07-08T15:30:47Z</time>
      </trkpt>
      <trkpt lat="63.99066" lon="-19.06032">
        <ele>595.6</ele>
        <time>2015-07-08T15:31:10Z</time>
      </trkpt>
      <trkpt lat="63.99069" lon="-19.06036">
        <ele>595.67</ele>
        <time>2015-07-08T15:31:15Z</time>
      </trkpt>
      <trkpt lat="63.99071" lon="-19.06038">
        <ele>595.68</ele>
        <time>2015-07-08T15:31:17Z</time>
      </trkpt>
      <trkpt lat="63.99071" lon="-19.06051">
        <ele>595.5</ele>
        <time>2015-07-08T15:31:23Z</time>
      </trkpt>
      <trkpt lat="63.99061" lon="-19.06066">
        <ele>595.76</ele>
        <time>2015-07-08T15:31:39Z</time>
      </trkpt>
      <trkpt lat="63.99058" lon="-19.06071">
        <ele>596.32</ele>
        <time>2015-07-08T15:31:57Z</time>
      </trkpt>
      <trkpt lat="63.99062" lon="-19.06072">
        <ele>596.29</ele>
        <time>2015-07-08T15:32:13Z</time>
      </trkpt>
      <trkpt lat="63.9907" lon="-19.0608">
        <ele>594.84</ele>
        <time>2015-07-08T15:32:22Z</time>
      </trkpt>
      <trkpt lat="63.99076" lon="-19.06077">
        <ele>595.3</ele>
        <time>2015-07-08T15:32:39Z</time>
      </trkpt>
      <trkpt lat="63.99077" lon="-19.06082">
        <ele>595.63</ele>
        <time>2015-07-08T15:33:12Z</time>
      </trkpt>
      <trkpt lat="63.99078" lon="-19.06074">
        <ele>595.31</ele>
        <time>2015-07-08T15:33:18Z</time>
      </trkpt>
      <trkpt lat="63.9908" lon="-19.06063">
        <ele>595.37</ele>
        <time>2015-07-08T15:33:22Z</time>
      </trkpt>
      <trkpt lat="63.99096" lon="-19.06035">
        <ele>594.75</ele>
        <time>2015-07-08T15:33:38Z</time>
      </trkpt>
      <trkpt lat="63.99113" lon="-19.06014">
        <ele>595.05</ele>
        <time>2015-07-08T15:33:54Z</time>
      </trkpt>
      <trkpt lat="63.9913" lon="-19.05993">
        <ele>595.16</ele>
        <time>2015-07-08T15:34:09Z</time>
      </trkpt>
      <trkpt lat="63.99134" lon="-19.05989">
        <ele>595.22</ele>
        <time>2015-07-08T15:34:13Z</time>
      </trkpt>
      <trkpt lat="63.99155" lon="-19.05967">
        <ele>594.92</ele>
        <time>2015-07-08T15:34:31Z</time>
      </trkpt>
      <trkpt lat="63.99174" lon="-19.05945">
        <ele>595.13</ele>
        <time>2015-07-08T15:34:48Z</time>
      </trkpt>
      <trkpt lat="63.99189" lon="-19.05927">
        <ele>594.79</ele>
        <time>2015-07-08T15:35:02Z</time>
      </trkpt>
      <trkpt lat="63.99208" lon="-19.05924">
        <ele>594.52</ele>
        <time>2015-07-08T15:35:18Z</time>
      </trkpt>
      <trkpt lat="63.99225" lon="-19.05933">
        <ele>594.57</ele>
        <time>2015-07-08T15:35:33Z</time>
      </trkpt>
      <trkpt lat="63.99237" lon="-19.05944">
        <ele>594.12</ele>
        <time>2015-07-08T15:35:44Z</time>
      </trkpt>
      <trkpt lat="63.99242" lon="-19.05947">
        <ele>594.2</ele>
        <time>2015-07-08T15:35:48Z</time>
      </trkpt>
      <trkpt lat="63.99261" lon="-19.05965">
        <ele>593.85</ele>
        <time>2015-07-08T15:36:05Z</time>
      </trkpt>
      <trkpt lat="63.99262" lon="-19.05966">
        <ele>593.88</ele>
        <time>2015-07-08T15:36:06Z</time>
      </trkpt>
      <trkpt lat="63.99269" lon="-19.05973">
        <ele>594.08</ele>
        <time>2015-07-08T15:36:12Z</time>
      </trkpt>
      <trkpt lat="63.9929" lon="-19.05994">
        <ele>593.83</ele>
        <time>2015-07-08T15:36:30Z</time>
      </trkpt>
      <trkpt lat="63.9931" lon="-19.06012">
        <ele>593.75</ele>
        <time>2015-07-08T15:36:46Z</time>
      </trkpt>
      <trkpt lat="63.99327" lon="-19.06042">
        <ele>593.53</ele>
        <time>2015-07-08T15:37:04Z</time>
      </trkpt>
      <trkpt lat="63.99342" lon="-19.06056">
        <ele>593.1</ele>
        <time>2015-07-08T15:37:19Z</time>
      </trkpt>
      <trkpt lat="63.99343" lon="-19.06058">
        <ele>592.93</ele>
        <time>2015-07-08T15:37:21Z</time>
      </trkpt>
      <trkpt lat="63.99348" lon="-19.06074">
        <ele>593.14</ele>
        <time>2015-07-08T15:37:30Z</time>
      </trkpt>
      <trkpt lat="63.99363" lon="-19.06065">
        <ele>593.57</ele>
        <time>2015-07-08T15:37:44Z</time>
      </trkpt>
      <trkpt lat="63.99371" lon="-19.0606">
        <ele>593.57</ele>
        <time>2015-07-08T15:38:00Z</time>
      </trkpt>
      <trkpt lat="63.99379" lon="-19.06065">
        <ele>593.73</ele>
        <time>2015-07-08T15:38:12Z</time>
      </trkpt>
      <trkpt lat="63.99392" lon="-19.06071">
        <ele>594.27</ele>
        <time>2015-07-08T15:38:26Z</time>
      </trkpt>
      <trkpt lat="63.99394" lon="-19.06073">
        <ele>594.23</ele>
        <time>2015-07-08T15:38:28Z</time>
      </trkpt>
      <trkpt lat="63.99398" lon="-19.06075">
        <ele>594.21</ele>
        <time>2015-07-08T15:38:33Z</time>
      </trkpt>
      <trkpt lat="63.99413" lon="-19.06083">
        <ele>594.4</ele>
        <time>2015-07-08T15:38:47Z</time>
      </trkpt>
      <trkpt lat="63.99417" lon="-19.06085">
        <ele>594.44</ele>
        <time>2015-07-08T15:38:51Z</time>
      </trkpt>
      <trkpt lat="63.99425" lon="-19.06086">
        <ele>594.23</ele>
        <time>2015-07-08T15:38:59Z</time>
      </trkpt>
      <trkpt lat="63.9943" lon="-19.06088">
        <ele>594.12</ele>
        <time>2015-07-08T15:39:04Z</time>
      </trkpt>
      <trkpt lat="63.99437" lon="-19.06093">
        <ele>594.82</ele>
        <time>2015-07-08T15:39:12Z</time>
      </trkpt>
      <trkpt lat="63.99442" lon="-19.0609">
        <ele>594.87</ele>
        <time>2015-07-08T15:39:16Z</time>
      </trkpt>
      <trkpt lat="63.99456" lon="-19.06072">
        <ele>595.74</ele>
        <time>2015-07-08T15:39:32Z</time>
      </trkpt>
      <trkpt lat="63.99463" lon="-19.06052">
        <ele>597.78</ele>
        <time>2015-07-08T15:39:43Z</time>
      </trkpt>
      <trkpt lat="63.99465" lon="-19.06033">
        <ele>599.92</ele>
        <time>2015-07-08T15:40:00Z</time>
      </trkpt>
      <trkpt lat="63.99466" lon="-19.0603">
        <ele>600.98</ele>
        <time>2015-07-08T15:40:17Z</time>
      </trkpt>
      <trkpt lat="63.99465" lon="-19.06032">
        <ele>599.46</ele>
        <time>2015-07-08T15:40:50Z</time>
      </trkpt>
      <trkpt lat="63.99459" lon="-19.06019">
        <ele>599</ele>
        <time>2015-07-08T15:41:25Z</time>
      </trkpt>
      <trkpt lat="63.99464" lon="-19.06006">
        <ele>595.83</ele>
        <time>2015-07-08T15:41:38Z</time>
      </trkpt>
      <trkpt lat="63.99469" lon="-19.06003">
        <ele>594.49</ele>
        <time>2015-07-08T15:41:52Z</time>
      </trkpt>
      <trkpt lat="63.9947" lon="-19.06009">
        <ele>594.22</ele>
        <time>2015-07-08T15:42:05Z</time>
      </trkpt>
      <trkpt lat="63.9947" lon="-19.06006">
        <ele>594.14</ele>
        <time>2015-07-08T15:42:22Z</time>
      </trkpt>
      <trkpt lat="63.99468" lon="-19.06003">
        <ele>594.43</ele>
        <time>2015-07-08T15:42:38Z</time>
      </trkpt>
      <trkpt lat="63.99458" lon="-19.06009">
        <ele>595.06</ele>
        <time>2015-07-08T15:42:51Z</time>
      </trkpt>
      <trkpt lat="63.99457" lon="-19.06007">
        <ele>596.88</ele>
        <time>2015-07-08T15:43:07Z</time>
      </trkpt>
      <trkpt lat="63.99456" lon="-19.06004">
        <ele>596.8</ele>
        <time>2015-07-08T15:43:47Z</time>
      </trkpt>
      <trkpt lat="63.99461" lon="-19.06004">
        <ele>596.5</ele>
        <time>2015-07-08T15:44:20Z</time>
      </trkpt>
      <trkpt lat="63.99466" lon="-19.05999">
        <ele>594.28</ele>
        <time>2015-07-08T15:44:34Z</time>
      </trkpt>
      <trkpt lat="63.99467" lon="-19.06003">
        <ele>594.49</ele>
        <time>2015-07-08T15:44:55Z</time>
      </trkpt>
    </trkseg>
  </trk>
</gpx>